Observation data for Hobbs on 07/03/2020      Previous  Date  Next       Current Mesonet Observations  Soil Data  Daily Summary Page  Observations in Plain Language
KHO1 030500Z 15010KT 27/15 A3009 RMK A01 T02650152  RH  050%=      5-min Rain = 0
KHO1 030501Z 15010KT 27/15 A3009 RMK A01 T02650152  RH  050%=      5-min Rain = 0
KHO1 030502Z 16011KT 26/15 A3009 RMK A01 T02640153  RH  050%=      5-min Rain = 0
KHO1 030503Z 15011KT 26/15 A3009 RMK A01 T02640153  RH  050%=      5-min Rain = 0
KHO1 030504Z 16011KT 26/15 A3009 RMK A01 T02640153  RH  050%=      5-min Rain = 0
KHO1 030505Z 16012KT 26/15 A3009 RMK A01 T02640153  RH  050%=      5-min Rain = 0
KHO1 030506Z 15009KT 26/15 A3009 RMK A01 T02640153  RH  050%=      5-min Rain = 0
KHO1 030507Z 15011KT 26/15 A3009 RMK A01 T02640153  RH  050%=      5-min Rain = 0
KHO1 030508Z 15010KT 26/15 A3009 RMK A01 T02640153  RH  050%=      5-min Rain = 0
KHO1 030509Z 16012KT 26/15 A3009 RMK A01 T02640153  RH  051%=      5-min Rain = 0
KHO1 030510Z 16011KT 26/15 A3009 RMK A01 T02640153  RH  050%=      5-min Rain = 0
KHO1 030511Z 16011KT 26/15 A3009 RMK A01 T02640153  RH  050%=      5-min Rain = 0
KHO1 030512Z 16013KT 26/15 A3009 RMK A01 T02640153  RH  050%=      5-min Rain = 0
KHO1 030513Z 16011KT 26/15 A3009 RMK A01 T02640153  RH  050%=      5-min Rain = 0
KHO1 030514Z 16010KT 26/15 A301 RMK A01 T02640153  RH  050%=      5-min Rain = 0
KHO1 030515Z 16013KT 26/15 A301 RMK A01 T02640153  RH  051%=      5-min Rain = 0
KHO1 030516Z 16011KT 26/15 A301 RMK A01 T02640153  RH  051%=      5-min Rain = 0
KHO1 030517Z 16009KT 26/15 A301 RMK A01 T02640153  RH  050%=      5-min Rain = 0
KHO1 030518Z 16010KT 26/15 A301 RMK A01 T02630153  RH  051%=      5-min Rain = 0
KHO1 030519Z 16008KT 26/15 A301 RMK A01 T02630153  RH  051%=      5-min Rain = 0
KHO1 030520Z 16010KT 26/15 A301 RMK A01 T02630153  RH  051%=      5-min Rain = 0
KHO1 030521Z 16009KT 26/15 A301 RMK A01 T02630153  RH  051%=      5-min Rain = 0
KHO1 030522Z 16011KT 26/15 A301 RMK A01 T02630153  RH  051%=      5-min Rain = 0
KHO1 030523Z 16011KT 26/15 A301 RMK A01 T02630152  RH  051%=      5-min Rain = 0
KHO1 030524Z 16012KT 26/15 A3009 RMK A01 T02630152  RH  050%=      5-min Rain = 0
KHO1 030525Z 16009KT 26/15 A3009 RMK A01 T02630152  RH  050%=      5-min Rain = 0
KHO1 030526Z 16011KT 26/15 A3009 RMK A01 T02630152  RH  051%=      5-min Rain = 0
KHO1 030527Z 16010KT 26/15 A3009 RMK A01 T02630152  RH  050%=      5-min Rain = 0
KHO1 030528Z 17011KT 26/15 A3009 RMK A01 T02620152  RH  051%=      5-min Rain = 0
KHO1 030529Z 17011KT 26/15 A3009 RMK A01 T02630152  RH  051%=      5-min Rain = 0
KHO1 030530Z 17011KT 26/15 A3009 RMK A01 T02620151  RH  050%=      5-min Rain = 0
KHO1 030531Z 17010KT 26/15 A3009 RMK A01 T02620151  RH  050%=      5-min Rain = 0
KHO1 030532Z 17013KT 26/15 A3009 RMK A01 T02620151  RH  050%=      5-min Rain = 0
KHO1 030533Z 17012KT 26/15 A3009 RMK A01 T02630150  RH  050%=      5-min Rain = 0
KHO1 030534Z 17012KT 26/15 A3009 RMK A01 T02630150  RH  050%=      5-min Rain = 0
KHO1 030535Z 17011KT 26/15 A3009 RMK A01 T02620150  RH  050%=      5-min Rain = 0
KHO1 030536Z 17011KT 26/15 A3009 RMK A01 T02620150  RH  050%=      5-min Rain = 0
KHO1 030537Z 17011KT 26/15 A3009 RMK A01 T02620149  RH  050%=      5-min Rain = 0
KHO1 030538Z 17011KT 26/15 A3009 RMK A01 T02620149  RH  050%=      5-min Rain = 0
KHO1 030539Z 17011KT 26/15 A3009 RMK A01 T02620149  RH  050%=      5-min Rain = 0
KHO1 030540Z 17012KT 26/15 A3009 RMK A01 T02620148  RH  049%=      5-min Rain = 0
KHO1 030541Z 17012KT 26/15 A3009 RMK A01 T02620148  RH  049%=      5-min Rain = 0
KHO1 030542Z 17013G18KT 26/15 A3009 RMK A01 T02620147  RH  049%=      5-min Rain = 0
KHO1 030543Z 17012KT 26/15 A3009 RMK A01 T02630147  RH  049%=      5-min Rain = 0
KHO1 030544Z 17012KT 26/15 A3009 RMK A01 T02620146  RH  049%=      5-min Rain = 0
KHO1 030545Z 18012KT 26/15 A3009 RMK A01 T02620146  RH  049%=      5-min Rain = 0
KHO1 030546Z 17014KT 26/15 A3009 RMK A01 T02620145  RH  049%=      5-min Rain = 0
KHO1 030547Z 17012G17KT 26/15 A3009 RMK A01 T02620145  RH  049%=      5-min Rain = 0
KHO1 030548Z 17014KT 26/15 A301 RMK A01 T02620145  RH  049%=      5-min Rain = 0
KHO1 030549Z 17013KT 26/15 A301 RMK A01 T02620145  RH  049%=      5-min Rain = 0
KHO1 030550Z 17010KT 26/15 A301 RMK A01 T02610145  RH  049%=      5-min Rain = 0
KHO1 030551Z 17013KT 26/15 A301 RMK A01 T02610145  RH  049%=      5-min Rain = 0
KHO1 030552Z 17013KT 26/15 A301 RMK A01 T02610145  RH  049%=      5-min Rain = 0
KHO1 030553Z 17013KT 26/15 A301 RMK A01 T02610145  RH  049%=      5-min Rain = 0
KHO1 030554Z 17013KT 26/15 A301 RMK A01 T02610145  RH  049%=      5-min Rain = 0
KHO1 030555Z 17013KT 26/15 A301 RMK A01 T02610145  RH  049%=      5-min Rain = 0
KHO1 030556Z 17013KT 26/15 A301 RMK A01 T02610145  RH  049%=      5-min Rain = 0
KHO1 030557Z 16013KT 26/15 A301 RMK A01 T02610145  RH  049%=      5-min Rain = 0
KHO1 030558Z 17013G19KT 26/15 A301 RMK A01 T02610145  RH  049%=      5-min Rain = 0
KHO1 030559Z 17014KT 26/15 A301 RMK A01 T02610145  RH  049%=      5-min Rain = 0
KHO1 030600Z 16013KT 26/15 A301 RMK A01 T02600145  RH  049%=      5-min Rain = 0
KHO1 030601Z 16014KT 26/15 A301 RMK A01 T02600145  RH  049%=      5-min Rain = 0
KHO1 030602Z 16014KT 26/15 A301 RMK A01 T02600145  RH  049%=      5-min Rain = 0
KHO1 030603Z 16013KT 26/15 A301 RMK A01 T02600145  RH  049%=      5-min Rain = 0
KHO1 030604Z 16014KT 26/15 A301 RMK A01 T02600145  RH  049%=      5-min Rain = 0
KHO1 030605Z 16012G17KT 26/15 A301 RMK A01 T02590145  RH  049%=      5-min Rain = 0
KHO1 030606Z 17015KT 26/14 A301 RMK A01 T02600144  RH  049%=      5-min Rain = 0
KHO1 030607Z 17014KT 26/14 A301 RMK A01 T02600144  RH  049%=      5-min Rain = 0
KHO1 030608Z 16012KT 26/14 A301 RMK A01 T02590144  RH  049%=      5-min Rain = 0
KHO1 030609Z 16012KT 26/14 A301 RMK A01 T02590144  RH  049%=      5-min Rain = 0
KHO1 030610Z 16013KT 26/14 A301 RMK A01 T02590144  RH  049%=      5-min Rain = 0
KHO1 030611Z 17015KT 26/14 A301 RMK A01 T02590144  RH  049%=      5-min Rain = 0
KHO1 030612Z 16012KT 26/14 A301 RMK A01 T02590144  RH  049%=      5-min Rain = 0
KHO1 030613Z 16012G17KT 26/14 A301 RMK A01 T02580144  RH  049%=      5-min Rain = 0
KHO1 030614Z 17013KT 26/14 A301 RMK A01 T02580144  RH  049%=      5-min Rain = 0
KHO1 030615Z 16012KT 26/14 A301 RMK A01 T02580144  RH  049%=      5-min Rain = 0
KHO1 030616Z 16012KT 26/14 A301 RMK A01 T02580144  RH  049%=      5-min Rain = 0
KHO1 030617Z 16015KT 26/15 A301 RMK A01 T02580145  RH  050%=      5-min Rain = 0
KHO1 030618Z 16011KT 26/15 A301 RMK A01 T02580145  RH  050%=      5-min Rain = 0
KHO1 030619Z 16012KT 26/15 A301 RMK A01 T02580145  RH  050%=      5-min Rain = 0
KHO1 030620Z 15014KT 26/15 A301 RMK A01 T02580145  RH  050%=      5-min Rain = 0
KHO1 030621Z 16013KT 26/15 A301 RMK A01 T02570145  RH  050%=      5-min Rain = 0
KHO1 030622Z 15012KT 26/15 A301 RMK A01 T02570145  RH  050%=      5-min Rain = 0
KHO1 030623Z 16013KT 26/15 A3011 RMK A01 T02570146  RH  050%=      5-min Rain = 0
KHO1 030624Z 16011KT 26/15 A3011 RMK A01 T02570146  RH  050%=      5-min Rain = 0
KHO1 030625Z 15011KT 26/15 A3011 RMK A01 T02570146  RH  050%=      5-min Rain = 0
KHO1 030626Z 16013KT 26/15 A3011 RMK A01 T02570146  RH  050%=      5-min Rain = 0
KHO1 030627Z 15012KT 26/15 A301 RMK A01 T02570147  RH  050%=      5-min Rain = 0
KHO1 030628Z 15010KT 26/15 A301 RMK A01 T02570147  RH  051%=      5-min Rain = 0
KHO1 030629Z 16013KT 26/15 A301 RMK A01 T02560147  RH  051%=      5-min Rain = 0
KHO1 030630Z 16013KT 26/15 A301 RMK A01 T02570148  RH  051%=      5-min Rain = 0
KHO1 030631Z 15010KT 26/15 A301 RMK A01 T02570148  RH  051%=      5-min Rain = 0
KHO1 030632Z 16011KT 26/15 A301 RMK A01 T02560148  RH  051%=      5-min Rain = 0
KHO1 030633Z 16012KT 26/15 A301 RMK A01 T02560148  RH  051%=      5-min Rain = 0
KHO1 030634Z 16011KT 26/15 A301 RMK A01 T02560149  RH  051%=      5-min Rain = 0
KHO1 030635Z 16012KT 26/15 A301 RMK A01 T02560149  RH  052%=      5-min Rain = 0
KHO1 030636Z 15012KT 26/15 A301 RMK A01 T02560149  RH  052%=      5-min Rain = 0
KHO1 030637Z 16009KT 26/15 A301 RMK A01 T02560149  RH  052%=      5-min Rain = 0
KHO1 030638Z 15011KT 26/15 A301 RMK A01 T02560149  RH  052%=      5-min Rain = 0
KHO1 030639Z 16012KT 26/15 A301 RMK A01 T02550149  RH  052%=      5-min Rain = 0
KHO1 030640Z 15010KT 26/15 A301 RMK A01 T02550150  RH  052%=      5-min Rain = 0
KHO1 030641Z 16010KT 26/15 A301 RMK A01 T02550150  RH  052%=      5-min Rain = 0
KHO1 030642Z 16011KT 26/15 A301 RMK A01 T02550150  RH  052%=      5-min Rain = 0
KHO1 030643Z 15013KT 26/15 A301 RMK A01 T02550150  RH  052%=      5-min Rain = 0
KHO1 030644Z 16013KT 26/15 A301 RMK A01 T02550150  RH  052%=      5-min Rain = 0
KHO1 030645Z 15011KT 26/15 A301 RMK A01 T02550151  RH  052%=      5-min Rain = 0
KHO1 030646Z 15012KT 26/15 A301 RMK A01 T02550151  RH  053%=      5-min Rain = 0
KHO1 030647Z 15012KT 26/15 A301 RMK A01 T02550151  RH  053%=      5-min Rain = 0
KHO1 030648Z 15010KT 25/15 A301 RMK A01 T02540151  RH  053%=      5-min Rain = 0
KHO1 030649Z 16012KT 25/15 A301 RMK A01 T02540151  RH  053%=      5-min Rain = 0
KHO1 030650Z 16012KT 25/15 A301 RMK A01 T02540152  RH  053%=      5-min Rain = 0
KHO1 030651Z 16012KT 25/15 A301 RMK A01 T02540152  RH  053%=      5-min Rain = 0
KHO1 030652Z 16013KT 25/15 A301 RMK A01 T02540152  RH  053%=      5-min Rain = 0
KHO1 030653Z 15012KT 25/15 A301 RMK A01 T02540152  RH  053%=      5-min Rain = 0
KHO1 030654Z 15010KT 25/15 A301 RMK A01 T02540152  RH  053%=      5-min Rain = 0
KHO1 030655Z 16014KT 25/15 A301 RMK A01 T02530152  RH  054%=      5-min Rain = 0
KHO1 030656Z 15012KT 25/15 A301 RMK A01 T02540153  RH  054%=      5-min Rain = 0
KHO1 030657Z 16012KT 25/15 A301 RMK A01 T02530153  RH  054%=      5-min Rain = 0
KHO1 030658Z 16012KT 25/15 A301 RMK A01 T02530153  RH  054%=      5-min Rain = 0
KHO1 030659Z 16011G16KT 25/15 A301 RMK A01 T02530153  RH  054%=      5-min Rain = 0
KHO1 030700Z 16013KT 25/15 A301 RMK A01 T02530153  RH  054%=      5-min Rain = 0
KHO1 030701Z 15012KT 25/15 A301 RMK A01 T02530153  RH  054%=      5-min Rain = 0
KHO1 030702Z 16009KT 25/15 A301 RMK A01 T02530153  RH  054%=      5-min Rain = 0
KHO1 030703Z 15010KT 25/15 A301 RMK A01 T02520153  RH  054%=      5-min Rain = 0
KHO1 030704Z 15011KT 25/15 A301 RMK A01 T02520153  RH  054%=      5-min Rain = 0
KHO1 030705Z 15011KT 25/15 A301 RMK A01 T02520153  RH  054%=      5-min Rain = 0
KHO1 030706Z 15012KT 25/15 A301 RMK A01 T02530153  RH  054%=      5-min Rain = 0
KHO1 030707Z 16012KT 25/15 A301 RMK A01 T02530153  RH  054%=      5-min Rain = 0
KHO1 030708Z 15011KT 25/15 A301 RMK A01 T02530153  RH  054%=      5-min Rain = 0
KHO1 030709Z 15011KT 25/15 A301 RMK A01 T02520153  RH  054%=      5-min Rain = 0
KHO1 030710Z 15011KT 25/15 A301 RMK A01 T02520153  RH  054%=      5-min Rain = 0
KHO1 030711Z 16012KT 25/15 A301 RMK A01 T02520153  RH  054%=      5-min Rain = 0
KHO1 030712Z 15009KT 25/15 A301 RMK A01 T02520153  RH  054%=      5-min Rain = 0
KHO1 030713Z 16011KT 25/15 A301 RMK A01 T02520153  RH  054%=      5-min Rain = 0
KHO1 030714Z 16011KT 25/15 A301 RMK A01 T02520153  RH  054%=      5-min Rain = 0
KHO1 030715Z 15010KT 25/15 A301 RMK A01 T02520153  RH  054%=      5-min Rain = 0
KHO1 030716Z 16011KT 25/15 A301 RMK A01 T02520153  RH  054%=      5-min Rain = 0
KHO1 030717Z 16011KT 25/15 A301 RMK A01 T02520153  RH  054%=      5-min Rain = 0
KHO1 030718Z 16010KT 25/15 A301 RMK A01 T02520153  RH  054%=      5-min Rain = 0
KHO1 030719Z 16010KT 25/15 A301 RMK A01 T02520153  RH  054%=      5-min Rain = 0
KHO1 030720Z 16009KT 25/15 A301 RMK A01 T02520153  RH  054%=      5-min Rain = 0
KHO1 030721Z 16011KT 25/15 A301 RMK A01 T02520153  RH  054%=      5-min Rain = 0
KHO1 030722Z 15011KT 25/15 A301 RMK A01 T02520153  RH  054%=      5-min Rain = 0
KHO1 030723Z 15009KT 25/15 A301 RMK A01 T02520153  RH  054%=      5-min Rain = 0
KHO1 030724Z 15011KT 25/15 A301 RMK A01 T02510153  RH  054%=      5-min Rain = 0
KHO1 030725Z 14013KT 25/15 A301 RMK A01 T02520153  RH  054%=      5-min Rain = 0
KHO1 030726Z 15010KT 25/15 A301 RMK A01 T02520152  RH  054%=      5-min Rain = 0
KHO1 030727Z 15010KT 25/15 A301 RMK A01 T02520152  RH  054%=      5-min Rain = 0
KHO1 030728Z 15011KT 25/15 A3009 RMK A01 T02510152  RH  054%=      5-min Rain = 0
KHO1 030729Z 16010KT 25/15 A3009 RMK A01 T02510152  RH  054%=      5-min Rain = 0
KHO1 030730Z 16009KT 25/15 A3009 RMK A01 T02510152  RH  054%=      5-min Rain = 0
KHO1 030731Z 16010KT 25/15 A3009 RMK A01 T02510153  RH  054%=      5-min Rain = 0
KHO1 030732Z 16010KT 25/15 A3009 RMK A01 T02510153  RH  054%=      5-min Rain = 0
KHO1 030733Z 16009KT 25/15 A3009 RMK A01 T02510152  RH  054%=      5-min Rain = 0
KHO1 030734Z 15011KT 25/15 A3009 RMK A01 T02510152  RH  054%=      5-min Rain = 0
KHO1 030735Z 16010KT 25/15 A3009 RMK A01 T02510153  RH  054%=      5-min Rain = 0
KHO1 030736Z 16010G15KT 25/15 A3009 RMK A01 T02510152  RH  054%=      5-min Rain = 0
KHO1 030737Z 15010KT 25/15 A3009 RMK A01 T02510153  RH  054%=      5-min Rain = 0
KHO1 030738Z 15011KT 25/15 A3009 RMK A01 T02510152  RH  054%=      5-min Rain = 0
KHO1 030739Z 15010KT 25/15 A3009 RMK A01 T02510152  RH  054%=      5-min Rain = 0
KHO1 030740Z 15011KT 25/15 A3009 RMK A01 T02500152  RH  054%=      5-min Rain = 0
KHO1 030741Z 15012KT 25/15 A3009 RMK A01 T02500152  RH  054%=      5-min Rain = 0
KHO1 030742Z 15012KT 25/15 A3009 RMK A01 T02500152  RH  055%=      5-min Rain = 0
KHO1 030743Z 15011KT 25/15 A3009 RMK A01 T02500152  RH  055%=      5-min Rain = 0
KHO1 030744Z 15009KT 25/15 A3009 RMK A01 T02500152  RH  055%=      5-min Rain = 0
KHO1 030745Z 15009KT 25/15 A3009 RMK A01 T02500152  RH  055%=      5-min Rain = 0
KHO1 030746Z 15009KT 25/15 A3009 RMK A01 T02490152  RH  055%=      5-min Rain = 0
KHO1 030747Z 15008KT 25/15 A3009 RMK A01 T02490152  RH  055%=      5-min Rain = 0
KHO1 030748Z 15009KT 25/15 A3009 RMK A01 T02490152  RH  055%=      5-min Rain = 0
KHO1 030749Z 15008KT 25/15 A3009 RMK A01 T02490153  RH  055%=      5-min Rain = 0
KHO1 030750Z 15007KT 25/15 A3009 RMK A01 T02490152  RH  055%=      5-min Rain = 0
KHO1 030751Z 15008KT 25/15 A3009 RMK A01 T02480152  RH  055%=      5-min Rain = 0
KHO1 030752Z 16009KT 25/15 A3009 RMK A01 T02480153  RH  055%=      5-min Rain = 0
KHO1 030753Z 15008KT 25/15 A3009 RMK A01 T02480153  RH  055%=      5-min Rain = 0
KHO1 030754Z 15007KT 25/15 A3009 RMK A01 T02480153  RH  055%=      5-min Rain = 0
KHO1 030755Z 15009KT 25/15 A3009 RMK A01 T02480153  RH  055%=      5-min Rain = 0
KHO1 030756Z 15009KT 25/15 A3009 RMK A01 T02480153  RH  055%=      5-min Rain = 0
KHO1 030757Z 15009KT 25/15 A3009 RMK A01 T02480153  RH  055%=      5-min Rain = 0
KHO1 030758Z 16008KT 25/15 A3009 RMK A01 T02480153  RH  055%=      5-min Rain = 0
KHO1 030759Z 15007KT 25/15 A3009 RMK A01 T02480153  RH  055%=      5-min Rain = 0
KHO1 030800Z 15007KT 25/15 A3009 RMK A01 T02480153  RH  055%=      5-min Rain = 0
KHO1 030801Z 15008KT 25/15 A3009 RMK A01 T02480153  RH  056%=      5-min Rain = 0
KHO1 030802Z 15009KT 25/15 A3009 RMK A01 T02480153  RH  056%=      5-min Rain = 0
KHO1 030803Z 16008KT 25/15 A3009 RMK A01 T02480153  RH  056%=      5-min Rain = 0
KHO1 030804Z 15008KT 25/15 A3009 RMK A01 T02480153  RH  056%=      5-min Rain = 0
KHO1 030805Z 15007KT 25/15 A3009 RMK A01 T02480153  RH  056%=      5-min Rain = 0
KHO1 030806Z 15007KT 25/15 A3009 RMK A01 T02470153  RH  056%=      5-min Rain = 0
KHO1 030807Z 16007KT 25/15 A3009 RMK A01 T02470153  RH  056%=      5-min Rain = 0
KHO1 030808Z 15007KT 25/15 A3009 RMK A01 T02470153  RH  056%=      5-min Rain = 0
KHO1 030809Z 15008KT 25/15 A3009 RMK A01 T02470153  RH  056%=      5-min Rain = 0
KHO1 030810Z 15008KT 25/15 A3009 RMK A01 T02470153  RH  056%=      5-min Rain = 0
KHO1 030811Z 15006KT 25/15 A3009 RMK A01 T02470153  RH  056%=      5-min Rain = 0
KHO1 030812Z 16007KT 25/15 A3009 RMK A01 T02470153  RH  056%=      5-min Rain = 0
KHO1 030813Z 16007KT 25/15 A3009 RMK A01 T02470153  RH  056%=      5-min Rain = 0
KHO1 030814Z 16006KT 25/15 A3009 RMK A01 T02470153  RH  056%=      5-min Rain = 0
KHO1 030815Z 15007KT 25/15 A3009 RMK A01 T02470152  RH  056%=      5-min Rain = 0
KHO1 030816Z 15007KT 25/15 A3009 RMK A01 T02470152  RH  055%=      5-min Rain = 0
KHO1 030817Z 16008KT 25/15 A3009 RMK A01 T02480152  RH  055%=      5-min Rain = 0
KHO1 030818Z 16008KT 25/15 A3009 RMK A01 T02480152  RH  055%=      5-min Rain = 0
KHO1 030819Z 16007KT 25/15 A3009 RMK A01 T02480152  RH  055%=      5-min Rain = 0
KHO1 030820Z 15008KT 25/15 A3009 RMK A01 T02470151  RH  055%=      5-min Rain = 0
KHO1 030821Z 16008KT 25/15 A3009 RMK A01 T02480152  RH  055%=      5-min Rain = 0
KHO1 030822Z 15008KT 25/15 A3009 RMK A01 T02480151  RH  055%=      5-min Rain = 0
KHO1 030823Z 15009KT 25/15 A3009 RMK A01 T02480151  RH  055%=      5-min Rain = 0
KHO1 030824Z 15009KT 25/15 A3009 RMK A01 T02480151  RH  055%=      5-min Rain = 0
KHO1 030825Z 15008KT 25/15 A3008 RMK A01 T02480151  RH  055%=      5-min Rain = 0
KHO1 030826Z 15006KT 25/15 A3008 RMK A01 T02480150  RH  055%=      5-min Rain = 0
KHO1 030827Z 16008KT 25/15 A3008 RMK A01 T02480150  RH  055%=      5-min Rain = 0
KHO1 030828Z 16009KT 25/15 A3008 RMK A01 T02480150  RH  054%=      5-min Rain = 0
KHO1 030829Z 15009KT 25/15 A3008 RMK A01 T02490150  RH  054%=      5-min Rain = 0
KHO1 030830Z 15009KT 25/15 A3008 RMK A01 T02490149  RH  054%=      5-min Rain = 0
KHO1 030831Z 15008KT 25/15 A3008 RMK A01 T02490149  RH  054%=      5-min Rain = 0
KHO1 030832Z 14009KT 25/15 A3008 RMK A01 T02490149  RH  054%=      5-min Rain = 0
KHO1 030833Z 15010KT 25/15 A3009 RMK A01 T02490149  RH  054%=      5-min Rain = 0
KHO1 030834Z 14007KT 25/15 A3009 RMK A01 T02490149  RH  054%=      5-min Rain = 0
KHO1 030835Z 15010KT 25/15 A3009 RMK A01 T02490149  RH  054%=      5-min Rain = 0
KHO1 030836Z 15009KT 25/15 A3009 RMK A01 T02490148  RH  054%=      5-min Rain = 0
KHO1 030837Z 14010KT 25/15 A3009 RMK A01 T02490148  RH  054%=      5-min Rain = 0
KHO1 030838Z 15008KT 25/15 A3009 RMK A01 T02490148  RH  053%=      5-min Rain = 0
KHO1 030839Z 15010KT 25/15 A3009 RMK A01 T02490148  RH  053%=      5-min Rain = 0
KHO1 030840Z 15009KT 25/15 A3009 RMK A01 T02490148  RH  053%=      5-min Rain = 0
KHO1 030841Z 15009KT 25/15 A3008 RMK A01 T02490148  RH  053%=      5-min Rain = 0
KHO1 030842Z 16008KT 25/15 A3008 RMK A01 T02490148  RH  053%=      5-min Rain = 0
KHO1 030843Z 16008KT 25/15 A3009 RMK A01 T02490148  RH  053%=      5-min Rain = 0
KHO1 030844Z 15007KT 25/15 A3009 RMK A01 T02490148  RH  053%=      5-min Rain = 0
KHO1 030845Z 16008KT 25/15 A3009 RMK A01 T02490148  RH  053%=      5-min Rain = 0
KHO1 030846Z 15008KT 25/15 A3009 RMK A01 T02490147  RH  053%=      5-min Rain = 0
KHO1 030847Z 15007KT 25/15 A3009 RMK A01 T02490147  RH  053%=      5-min Rain = 0
KHO1 030848Z 15008KT 25/15 A3009 RMK A01 T02490147  RH  053%=      5-min Rain = 0
KHO1 030849Z 15007KT 25/15 A3009 RMK A01 T02490147  RH  053%=      5-min Rain = 0
KHO1 030850Z 15008KT 25/15 A3009 RMK A01 T02480147  RH  053%=      5-min Rain = 0
KHO1 030851Z 15009KT 25/15 A3009 RMK A01 T02480147  RH  053%=      5-min Rain = 0
KHO1 030852Z 15008KT 25/15 A3009 RMK A01 T02480147  RH  053%=      5-min Rain = 0
KHO1 030853Z 15006KT 25/15 A3009 RMK A01 T02480147  RH  053%=      5-min Rain = 0
KHO1 030854Z 16007KT 25/15 A3009 RMK A01 T02480147  RH  053%=      5-min Rain = 0
KHO1 030855Z 15008KT 25/15 A3009 RMK A01 T02480147  RH  053%=      5-min Rain = 0
KHO1 030856Z 15008KT 25/15 A3009 RMK A01 T02480147  RH  053%=      5-min Rain = 0
KHO1 030857Z 16007KT 25/15 A3009 RMK A01 T02480147  RH  053%=      5-min Rain = 0
KHO1 030858Z 16005KT 25/15 A3009 RMK A01 T02480147  RH  053%=      5-min Rain = 0
KHO1 030859Z 16007KT 25/15 A3009 RMK A01 T02480147  RH  053%=      5-min Rain = 0
KHO1 030900Z 15007KT 25/15 A3009 RMK A01 T02480147  RH  053%=      5-min Rain = 0
KHO1 030901Z 16007KT 25/15 A3009 RMK A01 T02480147  RH  053%=      5-min Rain = 0
KHO1 030902Z 16007KT 25/15 A3009 RMK A01 T02480147  RH  054%=      5-min Rain = 0
KHO1 030903Z 15006KT 25/15 A3009 RMK A01 T02480147  RH  054%=      5-min Rain = 0
KHO1 030904Z 16005KT 25/15 A3009 RMK A01 T02470147  RH  054%=      5-min Rain = 0
KHO1 030905Z 15005KT 25/15 A3009 RMK A01 T02470147  RH  054%=      5-min Rain = 0
KHO1 030906Z 15006KT 25/15 A3009 RMK A01 T02470147  RH  054%=      5-min Rain = 0
KHO1 030907Z 15006KT 25/15 A3009 RMK A01 T02470147  RH  054%=      5-min Rain = 0
KHO1 030908Z 16007KT 25/15 A3009 RMK A01 T02470147  RH  054%=      5-min Rain = 0
KHO1 030909Z 16005KT 25/15 A3009 RMK A01 T02470147  RH  054%=      5-min Rain = 0
KHO1 030910Z 15006KT 25/15 A3009 RMK A01 T02460147  RH  054%=      5-min Rain = 0
KHO1 030911Z 15006KT 25/15 A3009 RMK A01 T02460147  RH  054%=      5-min Rain = 0
KHO1 030912Z 15005KT 25/15 A3009 RMK A01 T02460147  RH  054%=      5-min Rain = 0
KHO1 030913Z 15006KT 25/15 A3009 RMK A01 T02460147  RH  054%=      5-min Rain = 0
KHO1 030914Z 15006KT 25/15 A3009 RMK A01 T02460147  RH  054%=      5-min Rain = 0
KHO1 030915Z 15005KT 25/15 A3009 RMK A01 T02460147  RH  054%=      5-min Rain = 0
KHO1 030916Z 14006KT 25/15 A3009 RMK A01 T02460147  RH  054%=      5-min Rain = 0
KHO1 030917Z 15007KT 25/15 A3009 RMK A01 T02460147  RH  054%=      5-min Rain = 0
KHO1 030918Z 14005KT 25/15 A3009 RMK A01 T02460147  RH  054%=      5-min Rain = 0
KHO1 030919Z 13006KT 25/15 A3009 RMK A01 T02450147  RH  054%=      5-min Rain = 0
KHO1 030920Z 13006KT 25/15 A3009 RMK A01 T02450147  RH  054%=      5-min Rain = 0
KHO1 030921Z 14005KT 25/15 A3009 RMK A01 T02450147  RH  054%=      5-min Rain = 0
KHO1 030922Z 13005KT 24/15 A3009 RMK A01 T02440147  RH  054%=      5-min Rain = 0
KHO1 030923Z 13005KT 24/15 A3009 RMK A01 T02440147  RH  055%=      5-min Rain = 0
KHO1 030924Z 13005KT 24/15 A3009 RMK A01 T02430147  RH  055%=      5-min Rain = 0
KHO1 030925Z 14005KT 24/15 A3009 RMK A01 T02430147  RH  055%=      5-min Rain = 0
KHO1 030926Z 13005KT 24/15 A3009 RMK A01 T02430147  RH  055%=      5-min Rain = 0
KHO1 030927Z 14005KT 24/15 A3009 RMK A01 T02430148  RH  055%=      5-min Rain = 0
KHO1 030928Z 14005KT 24/15 A3009 RMK A01 T02430147  RH  055%=      5-min Rain = 0
KHO1 030929Z 14004KT 24/15 A3009 RMK A01 T02420147  RH  055%=      5-min Rain = 0
KHO1 030930Z 14005KT 24/15 A3009 RMK A01 T02420147  RH  055%=      5-min Rain = 0
KHO1 030931Z 14005KT 24/15 A3009 RMK A01 T02420147  RH  055%=      5-min Rain = 0
KHO1 030932Z 14005KT 24/15 A3009 RMK A01 T02410147  RH  056%=      5-min Rain = 0
KHO1 030933Z 13004KT 24/15 A3008 RMK A01 T02410147  RH  056%=      5-min Rain = 0
KHO1 030934Z 14005KT 24/15 A3008 RMK A01 T02410147  RH  056%=      5-min Rain = 0
KHO1 030935Z 13005KT 24/15 A3008 RMK A01 T02400147  RH  056%=      5-min Rain = 0
KHO1 030936Z 14005KT 24/15 A3008 RMK A01 T02400147  RH  056%=      5-min Rain = 0
KHO1 030937Z 14006KT 24/15 A3008 RMK A01 T02390147  RH  056%=      5-min Rain = 0
KHO1 030938Z 14006KT 24/15 A3008 RMK A01 T02390147  RH  056%=      5-min Rain = 0
KHO1 030939Z 14005KT 24/15 A3008 RMK A01 T02390148  RH  056%=      5-min Rain = 0
KHO1 030940Z 15006KT 24/15 A3008 RMK A01 T02400148  RH  056%=      5-min Rain = 0
KHO1 030941Z 14005KT 24/15 A3008 RMK A01 T02400147  RH  056%=      5-min Rain = 0
KHO1 030942Z 14005KT 24/15 A3008 RMK A01 T02390147  RH  056%=      5-min Rain = 0
KHO1 030943Z 15005KT 24/15 A3008 RMK A01 T02390147  RH  056%=      5-min Rain = 0
KHO1 030944Z 15005KT 24/15 A3008 RMK A01 T02390147  RH  056%=      5-min Rain = 0
KHO1 030945Z 15005KT 24/15 A3008 RMK A01 T02380147  RH  057%=      5-min Rain = 0
KHO1 030946Z 16004KT 24/15 A3008 RMK A01 T02380147  RH  057%=      5-min Rain = 0
KHO1 030947Z 16004KT 24/15 A3008 RMK A01 T02380147  RH  057%=      5-min Rain = 0
KHO1 030948Z 17004KT 24/15 A3008 RMK A01 T02390148  RH  057%=      5-min Rain = 0
KHO1 030949Z 18005KT 24/15 A3008 RMK A01 T02390149  RH  057%=      5-min Rain = 0
KHO1 030950Z 18005KT 24/15 A3008 RMK A01 T02380148  RH  057%=      5-min Rain = 0
KHO1 030951Z 18005KT 24/15 A3008 RMK A01 T02390149  RH  057%=      5-min Rain = 0
KHO1 030952Z 18005KT 24/15 A3008 RMK A01 T02380148  RH  057%=      5-min Rain = 0
KHO1 030953Z 18004KT 24/15 A3008 RMK A01 T02370148  RH  057%=      5-min Rain = 0
KHO1 030954Z 18004KT 24/15 A3008 RMK A01 T02360148  RH  058%=      5-min Rain = 0
KHO1 030955Z 17005KT 24/15 A3008 RMK A01 T02360149  RH  058%=      5-min Rain = 0
KHO1 030956Z 18004KT 24/15 A3008 RMK A01 T02360148  RH  058%=      5-min Rain = 0
KHO1 030957Z 17004KT 24/15 A3008 RMK A01 T02350148  RH  058%=      5-min Rain = 0
KHO1 030958Z 17004KT 24/15 A3008 RMK A01 T02350149  RH  058%=      5-min Rain = 0
KHO1 030959Z 17004KT 24/15 A3008 RMK A01 T02350149  RH  058%=      5-min Rain = 0
KHO1 031000Z 17004KT 24/15 A3008 RMK A01 T02350149  RH  058%=      5-min Rain = 0
KHO1 031001Z 18004KT 24/15 A3008 RMK A01 T02350149  RH  058%=      5-min Rain = 0
KHO1 031002Z 18004KT 24/15 A3008 RMK A01 T02350149  RH  058%=      5-min Rain = 0
KHO1 031003Z 17004KT 24/15 A3008 RMK A01 T02350149  RH  058%=      5-min Rain = 0
KHO1 031004Z 18003KT 24/15 A3008 RMK A01 T02350149  RH  058%=      5-min Rain = 0
KHO1 031005Z 18003KT 23/15 A3008 RMK A01 T02340148  RH  058%=      5-min Rain = 0
KHO1 031006Z 18003KT 23/15 A3008 RMK A01 T02340148  RH  059%=      5-min Rain = 0
KHO1 031007Z 18003KT 23/15 A3008 RMK A01 T02330148  RH  059%=      5-min Rain = 0
KHO1 031008Z 18004KT 23/15 A3008 RMK A01 T02330148  RH  059%=      5-min Rain = 0
KHO1 031009Z 19004KT 23/15 A3008 RMK A01 T02320148  RH  059%=      5-min Rain = 0
KHO1 031010Z 19004KT 23/15 A3008 RMK A01 T02320149  RH  059%=      5-min Rain = 0
KHO1 031011Z 19003KT 23/15 A3008 RMK A01 T02320148  RH  059%=      5-min Rain = 0
KHO1 031012Z 19003KT 23/15 A3008 RMK A01 T02320148  RH  059%=      5-min Rain = 0
KHO1 031013Z 19003KT 23/15 A3009 RMK A01 T02320148  RH  059%=      5-min Rain = 0
KHO1 031014Z 20003KT 23/15 A3009 RMK A01 T02320148  RH  059%=      5-min Rain = 0
KHO1 031015Z 20002KT 23/15 A3009 RMK A01 T02320148  RH  059%=      5-min Rain = 0
KHO1 031016Z 20002KT 23/15 A3009 RMK A01 T02320148  RH  059%=      5-min Rain = 0
KHO1 031017Z 20002KT 23/15 A3009 RMK A01 T02320148  RH  059%=      5-min Rain = 0
KHO1 031018Z 20002KT 23/15 A3009 RMK A01 T02320148  RH  059%=      5-min Rain = 0
KHO1 031019Z 20002KT 23/15 A3009 RMK A01 T02320148  RH  059%=      5-min Rain = 0
KHO1 031020Z 20002KT 23/15 A3009 RMK A01 T02320148  RH  059%=      5-min Rain = 0
KHO1 031021Z 20001KT 23/15 A3009 RMK A01 T02320148  RH  059%=      5-min Rain = 0
KHO1 031022Z 19001KT 23/15 A3009 RMK A01 T02310148  RH  059%=      5-min Rain = 0
KHO1 031023Z 19001KT 23/15 A3009 RMK A01 T02310148  RH  059%=      5-min Rain = 0
KHO1 031024Z 18001KT 23/15 A3009 RMK A01 T02310148  RH  060%=      5-min Rain = 0
KHO1 031025Z 18001KT 23/15 A3009 RMK A01 T02310148  RH  060%=      5-min Rain = 0
KHO1 031026Z 18001KT 23/15 A3009 RMK A01 T02310148  RH  060%=      5-min Rain = 0
KHO1 031027Z 18000KT 23/15 A3009 RMK A01 T02300147  RH  060%=      5-min Rain = 0
KHO1 031028Z 18000KT 23/15 A3009 RMK A01 T02300146  RH  059%=      5-min Rain = 0
KHO1 031029Z 14001KT 23/15 A3009 RMK A01 T02290147  RH  060%=      5-min Rain = 0
KHO1 031030Z 12002KT 23/15 A3009 RMK A01 T02280147  RH  060%=      5-min Rain = 0
KHO1 031031Z 11003KT 23/15 A3009 RMK A01 T02280148  RH  061%=      5-min Rain = 0
KHO1 031032Z 11003KT 23/15 A3009 RMK A01 T02280149  RH  061%=      5-min Rain = 0
KHO1 031033Z 11003KT 23/15 A3009 RMK A01 T02280149  RH  061%=      5-min Rain = 0
KHO1 031034Z 10003KT 23/15 A3009 RMK A01 T02280149  RH  061%=      5-min Rain = 0
KHO1 031035Z 10003KT 23/15 A3009 RMK A01 T02280149  RH  061%=      5-min Rain = 0
KHO1 031036Z 10004KT 23/15 A3009 RMK A01 T02280149  RH  061%=      5-min Rain = 0
KHO1 031037Z 10003KT 23/15 A3009 RMK A01 T02280148  RH  061%=      5-min Rain = 0
KHO1 031038Z 10003KT 23/15 A3009 RMK A01 T02280148  RH  061%=      5-min Rain = 0
KHO1 031039Z 10003KT 23/15 A3009 RMK A01 T02280148  RH  061%=      5-min Rain = 0
KHO1 031040Z 10003KT 23/15 A3009 RMK A01 T02280149  RH  061%=      5-min Rain = 0
KHO1 031041Z 10003KT 23/15 A3009 RMK A01 T02280149  RH  061%=      5-min Rain = 0
KHO1 031042Z 08001KT 23/15 A3009 RMK A01 T02280148  RH  061%=      5-min Rain = 0
KHO1 031043Z 07002KT 23/15 A3009 RMK A01 T02280148  RH  061%=      5-min Rain = 0
KHO1 031044Z 06002KT 23/15 A301 RMK A01 T02270148  RH  061%=      5-min Rain = 0
KHO1 031045Z 06003KT 23/15 A301 RMK A01 T02270148  RH  061%=      5-min Rain = 0
KHO1 031046Z 06003KT 23/15 A301 RMK A01 T02270148  RH  061%=      5-min Rain = 0
KHO1 031047Z 06003KT 23/15 A301 RMK A01 T02270148  RH  061%=      5-min Rain = 0
KHO1 031048Z 05004KT 23/15 A301 RMK A01 T02260148  RH  061%=      5-min Rain = 0
KHO1 031049Z 05005KT 23/15 A301 RMK A01 T02260148  RH  061%=      5-min Rain = 0
KHO1 031050Z 05005KT 23/15 A301 RMK A01 T02260149  RH  061%=      5-min Rain = 0
KHO1 031051Z 05005KT 23/15 A301 RMK A01 T02260149  RH  061%=      5-min Rain = 0
KHO1 031052Z 05005KT 23/15 A301 RMK A01 T02260149  RH  062%=      5-min Rain = 0
KHO1 031053Z 05005KT 23/15 A301 RMK A01 T02260149  RH  062%=      5-min Rain = 0
KHO1 031054Z 05005KT 23/15 A301 RMK A01 T02260150  RH  062%=      5-min Rain = 0
KHO1 031055Z 05004KT 23/15 A301 RMK A01 T02260150  RH  062%=      5-min Rain = 0
KHO1 031056Z 04004KT 23/15 A301 RMK A01 T02250149  RH  062%=      5-min Rain = 0
KHO1 031057Z 04004KT 23/15 A301 RMK A01 T02250149  RH  062%=      5-min Rain = 0
KHO1 031058Z 04003KT 22/15 A301 RMK A01 T02240148  RH  062%=      5-min Rain = 0
KHO1 031059Z 04004KT 22/15 A301 RMK A01 T02230149  RH  063%=      5-min Rain = 0
KHO1 031100Z 04004KT 22/15 A301 RMK A01 T02230149  RH  063%=      5-min Rain = 0
KHO1 031101Z 04003KT 22/15 A301 RMK A01 T02220149  RH  063%=      5-min Rain = 0
KHO1 031102Z 03003KT 22/15 A301 RMK A01 T02220149  RH  063%=      5-min Rain = 0
KHO1 031103Z 03004KT 22/15 A301 RMK A01 T02210148  RH  063%=      5-min Rain = 0
KHO1 031104Z 03004KT 22/15 A301 RMK A01 T02200148  RH  064%=      5-min Rain = 0
KHO1 031105Z 03004KT 22/15 A301 RMK A01 T02190149  RH  064%=      5-min Rain = 0
KHO1 031106Z 03005KT 22/15 A301 RMK A01 T02190149  RH  065%=      5-min Rain = 0
KHO1 031107Z 03005KT 22/15 A301 RMK A01 T02180149  RH  065%=      5-min Rain = 0
KHO1 031108Z 03005KT 22/15 A301 RMK A01 T02180149  RH  065%=      5-min Rain = 0
KHO1 031109Z 03005KT 22/15 A301 RMK A01 T02170149  RH  065%=      5-min Rain = 0
KHO1 031110Z 03005KT 22/15 A301 RMK A01 T02170149  RH  065%=      5-min Rain = 0
KHO1 031111Z 03006KT 22/15 A301 RMK A01 T02160149  RH  065%=      5-min Rain = 0
KHO1 031112Z 03006KT 22/15 A301 RMK A01 T02160149  RH  065%=      5-min Rain = 0
KHO1 031113Z 04006KT 22/15 A301 RMK A01 T02160148  RH  065%=      5-min Rain = 0
KHO1 031114Z 04006KT 22/15 A301 RMK A01 T02160148  RH  065%=      5-min Rain = 0
KHO1 031115Z 04006KT 22/15 A301 RMK A01 T02160148  RH  065%=      5-min Rain = 0
KHO1 031116Z 03006KT 22/15 A301 RMK A01 T02160148  RH  065%=      5-min Rain = 0
KHO1 031117Z 04006KT 22/15 A301 RMK A01 T02160148  RH  065%=      5-min Rain = 0
KHO1 031118Z 04006KT 22/15 A301 RMK A01 T02160148  RH  065%=      5-min Rain = 0
KHO1 031119Z 04006KT 22/15 A3011 RMK A01 T02160148  RH  066%=      5-min Rain = 0
KHO1 031120Z 04007KT 22/15 A3011 RMK A01 T02150149  RH  066%=      5-min Rain = 0
KHO1 031121Z 04006KT 22/15 A3011 RMK A01 T02150149  RH  066%=      5-min Rain = 0
KHO1 031122Z 04005KT 22/15 A3011 RMK A01 T02150148  RH  066%=      5-min Rain = 0
KHO1 031123Z 04006KT 22/15 A3011 RMK A01 T02150149  RH  066%=      5-min Rain = 0
KHO1 031124Z 05005KT 22/15 A3011 RMK A01 T02150149  RH  066%=      5-min Rain = 0
KHO1 031125Z 05005KT 22/15 A3011 RMK A01 T02150149  RH  066%=      5-min Rain = 0
KHO1 031126Z 05006KT 22/15 A3011 RMK A01 T02160150  RH  066%=      5-min Rain = 0
KHO1 031127Z 05006KT 22/15 A3011 RMK A01 T02160150  RH  066%=      5-min Rain = 0
KHO1 031128Z 05006KT 22/15 A3012 RMK A01 T02170151  RH  066%=      5-min Rain = 0
KHO1 031129Z 06005KT 22/15 A3012 RMK A01 T02180151  RH  066%=      5-min Rain = 0
KHO1 031130Z 07004KT 22/15 A3012 RMK A01 T02180151  RH  066%=      5-min Rain = 0
KHO1 031131Z 06004KT 22/15 A3012 RMK A01 T02180151  RH  066%=      5-min Rain = 0
KHO1 031132Z 07004KT 22/15 A3012 RMK A01 T02170151  RH  066%=      5-min Rain = 0
KHO1 031133Z 07004KT 22/15 A3012 RMK A01 T02170151  RH  066%=      5-min Rain = 0
KHO1 031134Z 06004KT 22/15 A3012 RMK A01 T02170151  RH  066%=      5-min Rain = 0
KHO1 031135Z 06004KT 22/15 A3012 RMK A01 T02170151  RH  066%=      5-min Rain = 0
KHO1 031136Z 06005KT 22/15 A3012 RMK A01 T02170151  RH  066%=      5-min Rain = 0
KHO1 031137Z 06006KT 22/15 A3012 RMK A01 T02180151  RH  066%=      5-min Rain = 0
KHO1 031138Z 05006KT 22/15 A3012 RMK A01 T02180151  RH  066%=      5-min Rain = 0
KHO1 031139Z 05006KT 22/15 A3012 RMK A01 T02180151  RH  066%=      5-min Rain = 0
KHO1 031140Z 05006KT 22/15 A3012 RMK A01 T02180151  RH  066%=      5-min Rain = 0
KHO1 031141Z 05006KT 22/15 A3012 RMK A01 T02180151  RH  066%=      5-min Rain = 0
KHO1 031142Z 05006KT 22/15 A3012 RMK A01 T02180151  RH  065%=      5-min Rain = 0
KHO1 031143Z 05006KT 22/15 A3012 RMK A01 T02180151  RH  065%=      5-min Rain = 0
KHO1 031144Z 06005KT 22/15 A3012 RMK A01 T02180151  RH  065%=      5-min Rain = 0
KHO1 031145Z 06004KT 22/15 A3012 RMK A01 T02180151  RH  065%=      5-min Rain = 0
KHO1 031146Z 06003KT 22/15 A3012 RMK A01 T02180151  RH  065%=      5-min Rain = 0
KHO1 031147Z 07003KT 22/15 A3012 RMK A01 T02180150  RH  065%=      5-min Rain = 0
KHO1 031148Z 07004KT 22/15 A3012 RMK A01 T02170150  RH  066%=      5-min Rain = 0
KHO1 031149Z 07004KT 22/15 A3012 RMK A01 T02170150  RH  066%=      5-min Rain = 0
KHO1 031150Z 08004KT 22/15 A3012 RMK A01 T02160150  RH  066%=      5-min Rain = 0
KHO1 031151Z 08005KT 22/15 A3012 RMK A01 T02160151  RH  066%=      5-min Rain = 0
KHO1 031152Z 08005KT 22/15 A3012 RMK A01 T02160151  RH  066%=      5-min Rain = 0
KHO1 031153Z 08004KT 22/15 A3012 RMK A01 T02160151  RH  067%=      5-min Rain = 0
KHO1 031154Z 09004KT 22/15 A3012 RMK A01 T02160151  RH  067%=      5-min Rain = 0
KHO1 031155Z 09004KT 22/15 A3012 RMK A01 T02160151  RH  067%=      5-min Rain = 0
KHO1 031156Z 08004KT 22/15 A3012 RMK A01 T02160151  RH  067%=      5-min Rain = 0
KHO1 031157Z 08004KT 22/15 A3012 RMK A01 T02160151  RH  067%=      5-min Rain = 0
KHO1 031158Z 08004KT 22/15 A3012 RMK A01 T02160151  RH  067%=      5-min Rain = 0
KHO1 031159Z 07004KT 22/15 A3012 RMK A01 T02160151  RH  067%=      5-min Rain = 0
KHO1 031200Z 07004KT 22/15 A3012 RMK A01 T02160151  RH  067%=      5-min Rain = 0
KHO1 031201Z 07005KT 22/15 A3012 RMK A01 T02160151  RH  067%=      5-min Rain = 0
KHO1 031202Z 07004KT 22/15 A3012 RMK A01 T02160151  RH  067%=      5-min Rain = 0
KHO1 031203Z 07004KT 22/15 A3012 RMK A01 T02160151  RH  067%=      5-min Rain = 0
KHO1 031204Z 08004KT 22/15 A3012 RMK A01 T02160151  RH  067%=      5-min Rain = 0
KHO1 031205Z 08003KT 22/15 A3012 RMK A01 T02160151  RH  067%=      5-min Rain = 0
KHO1 031206Z 08004KT 22/15 A3012 RMK A01 T02150151  RH  067%=      5-min Rain = 0
KHO1 031207Z 08004KT 22/15 A3012 RMK A01 T02150151  RH  067%=      5-min Rain = 0
KHO1 031208Z 08004KT 22/15 A3012 RMK A01 T02150151  RH  067%=      5-min Rain = 0
KHO1 031209Z 08004KT 22/15 A3012 RMK A01 T02150151  RH  067%=      5-min Rain = 0
KHO1 031210Z 08005KT 22/15 A3012 RMK A01 T02150151  RH  067%=      5-min Rain = 0
KHO1 031211Z 09005KT 22/15 A3012 RMK A01 T02160152  RH  067%=      5-min Rain = 0
KHO1 031212Z 09004KT 22/15 A3012 RMK A01 T02160151  RH  066%=      5-min Rain = 0
KHO1 031213Z 09005KT 22/15 A3012 RMK A01 T02170151  RH  066%=      5-min Rain = 0
KHO1 031214Z 09004KT 22/15 A3012 RMK A01 T02170151  RH  066%=      5-min Rain = 0
KHO1 031215Z 09005KT 22/15 A3012 RMK A01 T02180151  RH  066%=      5-min Rain = 0
KHO1 031216Z 08004KT 22/15 A3012 RMK A01 T02180151  RH  066%=      5-min Rain = 0
KHO1 031217Z 09004KT 22/15 A3012 RMK A01 T02190151  RH  066%=      5-min Rain = 0
KHO1 031218Z 09005KT 22/15 A3012 RMK A01 T02190151  RH  065%=      5-min Rain = 0
KHO1 031219Z 09005KT 22/15 A3012 RMK A01 T02190151  RH  065%=      5-min Rain = 0
KHO1 031220Z 09005KT 22/15 A3012 RMK A01 T02190151  RH  065%=      5-min Rain = 0
KHO1 031221Z 09005KT 22/15 A3012 RMK A01 T02200151  RH  065%=      5-min Rain = 0
KHO1 031222Z 09005KT 22/15 A3012 RMK A01 T02200151  RH  065%=      5-min Rain = 0
KHO1 031223Z 09005KT 22/15 A3012 RMK A01 T02200151  RH  065%=      5-min Rain = 0
KHO1 031224Z 09005KT 22/15 A3012 RMK A01 T02200151  RH  065%=      5-min Rain = 0
KHO1 031225Z 09004KT 22/15 A3012 RMK A01 T02210151  RH  064%=      5-min Rain = 0
KHO1 031226Z 10006KT 22/15 A3012 RMK A01 T02210151  RH  064%=      5-min Rain = 0
KHO1 031227Z 10006KT 22/15 A3012 RMK A01 T02220151  RH  064%=      5-min Rain = 0
KHO1 031228Z 10008KT 22/15 A3012 RMK A01 T02220151  RH  064%=      5-min Rain = 0
KHO1 031229Z 10007KT 22/15 A3012 RMK A01 T02220151  RH  064%=      5-min Rain = 0
KHO1 031230Z 10006KT 22/15 A3012 RMK A01 T02230151  RH  064%=      5-min Rain = 0
KHO1 031231Z 10007KT 22/15 A3012 RMK A01 T02230150  RH  063%=      5-min Rain = 0
KHO1 031232Z 10006KT 22/15 A3012 RMK A01 T02240150  RH  063%=      5-min Rain = 0
KHO1 031233Z 10007KT 22/15 A3012 RMK A01 T02240150  RH  063%=      5-min Rain = 0
KHO1 031234Z 10006KT 23/15 A3012 RMK A01 T02250150  RH  063%=      5-min Rain = 0
KHO1 031235Z 11006KT 23/15 A3012 RMK A01 T02260150  RH  062%=      5-min Rain = 0
KHO1 031236Z 10007KT 23/15 A3012 RMK A01 T02260150  RH  062%=      5-min Rain = 0
KHO1 031237Z 10007KT 23/15 A3012 RMK A01 T02270150  RH  062%=      5-min Rain = 0
KHO1 031238Z 10005KT 23/15 A3012 RMK A01 T02270150  RH  062%=      5-min Rain = 0
KHO1 031239Z 10005KT 23/15 A3012 RMK A01 T02280150  RH  061%=      5-min Rain = 0
KHO1 031240Z 10005KT 23/15 A3012 RMK A01 T02290149  RH  061%=      5-min Rain = 0
KHO1 031241Z 10005KT 23/15 A3013 RMK A01 T02290149  RH  061%=      5-min Rain = 0
KHO1 031242Z 10007KT 23/15 A3013 RMK A01 T02300149  RH  060%=      5-min Rain = 0
KHO1 031243Z 10004KT 23/15 A3013 RMK A01 T02310149  RH  060%=      5-min Rain = 0
KHO1 031244Z 09005KT 23/15 A3013 RMK A01 T02310149  RH  060%=      5-min Rain = 0
KHO1 031245Z 10004KT 23/15 A3013 RMK A01 T02320149  RH  060%=      5-min Rain = 0
KHO1 031246Z 10004KT 23/15 A3013 RMK A01 T02320149  RH  059%=      5-min Rain = 0
KHO1 031247Z 10006KT 23/15 A3013 RMK A01 T02330148  RH  059%=      5-min Rain = 0
KHO1 031248Z 10007KT 23/15 A3013 RMK A01 T02330147  RH  058%=      5-min Rain = 0
KHO1 031249Z 11007KT 23/15 A3013 RMK A01 T02330147  RH  058%=      5-min Rain = 0
KHO1 031250Z 10008KT 23/15 A3013 RMK A01 T02330147  RH  058%=      5-min Rain = 0
KHO1 031251Z 11006KT 23/15 A3013 RMK A01 T02340146  RH  058%=      5-min Rain = 0
KHO1 031252Z 10006KT 23/15 A3012 RMK A01 T02330145  RH  058%=      5-min Rain = 0
KHO1 031253Z 11006KT 23/15 A3012 RMK A01 T02330145  RH  058%=      5-min Rain = 0
KHO1 031254Z 11007KT 23/15 A3012 RMK A01 T02330145  RH  058%=      5-min Rain = 0
KHO1 031255Z 11008KT 23/14 A3012 RMK A01 T02330144  RH  058%=      5-min Rain = 0
KHO1 031256Z 11008KT 23/14 A3012 RMK A01 T02320144  RH  058%=      5-min Rain = 0
KHO1 031257Z 11008KT 23/14 A3012 RMK A01 T02320144  RH  058%=      5-min Rain = 0
KHO1 031258Z 11008KT 23/15 A3012 RMK A01 T02320145  RH  058%=      5-min Rain = 0
KHO1 031259Z 12009KT 23/14 A3012 RMK A01 T02320144  RH  058%=      5-min Rain = 0
KHO1 031300Z 12010KT 23/14 A3012 RMK A01 T02320144  RH  058%=      5-min Rain = 0
KHO1 031301Z 11010KT 23/14 A3012 RMK A01 T02320144  RH  057%=      5-min Rain = 0
KHO1 031302Z 11010KT 23/14 A3012 RMK A01 T02320144  RH  058%=      5-min Rain = 0
KHO1 031303Z 11008KT 23/14 A3012 RMK A01 T02320144  RH  058%=      5-min Rain = 0
KHO1 031304Z 11008KT 23/14 A3013 RMK A01 T02320144  RH  058%=      5-min Rain = 0
KHO1 031305Z 11009KT 23/14 A3013 RMK A01 T02320144  RH  058%=      5-min Rain = 0
KHO1 031306Z 11008KT 23/14 A3013 RMK A01 T02320144  RH  057%=      5-min Rain = 0
KHO1 031307Z 11009KT 23/14 A3013 RMK A01 T02320143  RH  057%=      5-min Rain = 0
KHO1 031308Z 11008KT 23/14 A3013 RMK A01 T02330143  RH  057%=      5-min Rain = 0
KHO1 031309Z 11008KT 23/14 A3013 RMK A01 T02330143  RH  057%=      5-min Rain = 0
KHO1 031310Z 11009KT 23/14 A3013 RMK A01 T02340143  RH  057%=      5-min Rain = 0
KHO1 031311Z 11009KT 23/14 A3012 RMK A01 T02340142  RH  056%=      5-min Rain = 0
KHO1 031312Z 11009KT 23/14 A3012 RMK A01 T02340142  RH  056%=      5-min Rain = 0
KHO1 031313Z 10008KT 23/14 A3012 RMK A01 T02340142  RH  056%=      5-min Rain = 0
KHO1 031314Z 10006KT 24/14 A3012 RMK A01 T02350142  RH  056%=      5-min Rain = 0
KHO1 031315Z 10006KT 24/14 A3012 RMK A01 T02350142  RH  056%=      5-min Rain = 0
KHO1 031316Z 11007KT 24/14 A3013 RMK A01 T02350142  RH  056%=      5-min Rain = 0
KHO1 031317Z 12007KT 24/14 A3013 RMK A01 T02350141  RH  056%=      5-min Rain = 0
KHO1 031318Z 12006KT 24/14 A3013 RMK A01 T02350142  RH  056%=      5-min Rain = 0
KHO1 031319Z 11008KT 24/14 A3013 RMK A01 T02350142  RH  056%=      5-min Rain = 0
KHO1 031320Z 11006KT 24/14 A3013 RMK A01 T02350142  RH  056%=      5-min Rain = 0
KHO1 031321Z 12008KT 24/14 A3013 RMK A01 T02350142  RH  056%=      5-min Rain = 0
KHO1 031322Z 13007KT 24/14 A3012 RMK A01 T02350142  RH  056%=      5-min Rain = 0
KHO1 031323Z 13008KT 24/14 A3012 RMK A01 T02350142  RH  056%=      5-min Rain = 0
KHO1 031324Z 12007KT 24/14 A3013 RMK A01 T02350142  RH  056%=      5-min Rain = 0
KHO1 031325Z 13006KT 24/14 A3013 RMK A01 T02350142  RH  056%=      5-min Rain = 0
KHO1 031326Z 12006KT 24/14 A3013 RMK A01 T02360142  RH  056%=      5-min Rain = 0
KHO1 031327Z 13007KT 24/14 A3013 RMK A01 T02360142  RH  056%=      5-min Rain = 0
KHO1 031328Z 12005KT 24/14 A3013 RMK A01 T02360142  RH  056%=      5-min Rain = 0
KHO1 031329Z 13005KT 24/14 A3013 RMK A01 T02360142  RH  056%=      5-min Rain = 0
KHO1 031330Z 13005KT 24/14 A3013 RMK A01 T02360142  RH  056%=      5-min Rain = 0
KHO1 031331Z 13005KT 24/14 A3013 RMK A01 T02360142  RH  055%=      5-min Rain = 0
KHO1 031332Z 13005KT 24/14 A3012 RMK A01 T02370142  RH  055%=      5-min Rain = 0
KHO1 031333Z 14006KT 24/14 A3013 RMK A01 T02370142  RH  055%=      5-min Rain = 0
KHO1 031334Z 12004KT 24/14 A3013 RMK A01 T02380142  RH  055%=      5-min Rain = 0
KHO1 031335Z 12005KT 24/14 A3013 RMK A01 T02380141  RH  055%=      5-min Rain = 0
KHO1 031336Z 13005KT 24/14 A3013 RMK A01 T02390142  RH  055%=      5-min Rain = 0
KHO1 031337Z 12007KT 24/14 A3013 RMK A01 T02390140  RH  054%=      5-min Rain = 0
KHO1 031338Z 11006KT 24/14 A3013 RMK A01 T02390140  RH  054%=      5-min Rain = 0
KHO1 031339Z 12007KT 24/14 A3013 RMK A01 T02400140  RH  053%=      5-min Rain = 0
KHO1 031340Z 12007KT 24/14 A3013 RMK A01 T02400139  RH  053%=      5-min Rain = 0
KHO1 031341Z 13007KT 24/14 A3013 RMK A01 T02400139  RH  053%=      5-min Rain = 0
KHO1 031342Z 13007KT 24/14 A3013 RMK A01 T02400139  RH  053%=      5-min Rain = 0
KHO1 031343Z 13006KT 24/14 A3013 RMK A01 T02400138  RH  053%=      5-min Rain = 0
KHO1 031344Z 13004KT 24/14 A3013 RMK A01 T02400139  RH  053%=      5-min Rain = 0
KHO1 031345Z 13004KT 24/14 A3013 RMK A01 T02400139  RH  053%=      5-min Rain = 0
KHO1 031346Z 13004KT 24/14 A3013 RMK A01 T02400139  RH  053%=      5-min Rain = 0
KHO1 031347Z 14004KT 24/14 A3013 RMK A01 T02400139  RH  053%=      5-min Rain = 0
KHO1 031348Z 13005KT 24/14 A3013 RMK A01 T02400139  RH  053%=      5-min Rain = 0
KHO1 031349Z 13005KT 24/14 A3013 RMK A01 T02390139  RH  053%=      5-min Rain = 0
KHO1 031350Z 14005KT 24/14 A3013 RMK A01 T02390139  RH  054%=      5-min Rain = 0
KHO1 031351Z 15005KT 24/14 A3012 RMK A01 T02390140  RH  054%=      5-min Rain = 0
KHO1 031352Z 14005KT 24/14 A3012 RMK A01 T02400140  RH  053%=      5-min Rain = 0
KHO1 031353Z 13005KT 24/14 A3012 RMK A01 T02410141  RH  053%=      5-min Rain = 0
KHO1 031354Z 13005KT 24/14 A3012 RMK A01 T02430140  RH  053%=      5-min Rain = 0
KHO1 031355Z 14005KT 24/14 A3012 RMK A01 T02430140  RH  053%=      5-min Rain = 0
KHO1 031356Z 14006KT 24/14 A3012 RMK A01 T02420139  RH  053%=      5-min Rain = 0
KHO1 031357Z 14006KT 24/14 A3012 RMK A01 T02410139  RH  053%=      5-min Rain = 0
KHO1 031358Z 14007KT 24/14 A3013 RMK A01 T02420140  RH  053%=      5-min Rain = 0
KHO1 031359Z 13007KT 24/14 A3013 RMK A01 T02420141  RH  053%=      5-min Rain = 0
KHO1 031400Z 14006KT 25/14 A3013 RMK A01 T02450142  RH  053%=      5-min Rain = 0
KHO1 031401Z 14006KT 25/14 A3013 RMK A01 T02460141  RH  052%=      5-min Rain = 0
KHO1 031402Z 13007KT 25/14 A3013 RMK A01 T02480142  RH  052%=      5-min Rain = 0
KHO1 031403Z 14007KT 25/14 A3013 RMK A01 T02490143  RH  052%=      5-min Rain = 0
KHO1 031404Z 13007KT 25/14 A3013 RMK A01 T02500144  RH  052%=      5-min Rain = 0
KHO1 031405Z 13008KT 25/14 A3013 RMK A01 T02520144  RH  051%=      5-min Rain = 0
KHO1 031406Z 14009KT 25/14 A3013 RMK A01 T02520143  RH  051%=      5-min Rain = 0
KHO1 031407Z 13008KT 25/14 A3013 RMK A01 T02510144  RH  051%=      5-min Rain = 0
KHO1 031408Z 13008KT 25/14 A3013 RMK A01 T02510144  RH  051%=      5-min Rain = 0
KHO1 031409Z 15007KT 25/15 A3013 RMK A01 T02520145  RH  051%=      5-min Rain = 0
KHO1 031410Z 16007KT 25/15 A3013 RMK A01 T02530147  RH  052%=      5-min Rain = 0
KHO1 031411Z 16009KT 25/15 A3013 RMK A01 T02530146  RH  052%=      5-min Rain = 0
KHO1 031412Z 15009KT 25/15 A3013 RMK A01 T02520148  RH  052%=      5-min Rain = 0
KHO1 031413Z 16009KT 25/15 A3013 RMK A01 T02530148  RH  052%=      5-min Rain = 0
KHO1 031414Z 16009KT 25/15 A3013 RMK A01 T02530148  RH  052%=      5-min Rain = 0
KHO1 031415Z 16008KT 25/15 A3013 RMK A01 T02540148  RH  052%=      5-min Rain = 0
KHO1 031416Z 15008KT 26/15 A3013 RMK A01 T02560147  RH  051%=      5-min Rain = 0
KHO1 031417Z 12007KT 26/15 A3014 RMK A01 T02580148  RH  051%=      5-min Rain = 0
KHO1 031418Z 12009KT 26/15 A3014 RMK A01 T02580146  RH  050%=      5-min Rain = 0
KHO1 031419Z 14009KT 26/15 A3014 RMK A01 T02590147  RH  050%=      5-min Rain = 0
KHO1 031420Z 12009KT 26/15 A3014 RMK A01 T02570145  RH  050%=      5-min Rain = 0
KHO1 031421Z 14010KT 26/15 A3014 RMK A01 T02570145  RH  050%=      5-min Rain = 0
KHO1 031422Z 12008KT 26/15 A3014 RMK A01 T02560146  RH  050%=      5-min Rain = 0
KHO1 031423Z 12008KT 26/15 A3014 RMK A01 T02580147  RH  050%=      5-min Rain = 0
KHO1 031424Z 14009KT 26/15 A3014 RMK A01 T02580145  RH  050%=      5-min Rain = 0
KHO1 031425Z 14011KT 26/15 A3014 RMK A01 T02570146  RH  050%=      5-min Rain = 0
KHO1 031426Z 13010KT 26/15 A3014 RMK A01 T02560146  RH  050%=      5-min Rain = 0
KHO1 031427Z 13011KT 26/15 A3014 RMK A01 T02570148  RH  051%=      5-min Rain = 0
KHO1 031428Z 16008KT 26/15 A3013 RMK A01 T02590149  RH  051%=      5-min Rain = 0
KHO1 031429Z 17008KT 26/15 A3013 RMK A01 T02590149  RH  051%=      5-min Rain = 0
KHO1 031430Z 14010KT 26/15 A3013 RMK A01 T02610149  RH  050%=      5-min Rain = 0
KHO1 031431Z 14008KT 26/15 A3013 RMK A01 T02620148  RH  049%=      5-min Rain = 0
KHO1 031432Z 13008KT 26/15 A3013 RMK A01 T02610146  RH  049%=      5-min Rain = 0
KHO1 031433Z 13008KT 26/15 A3013 RMK A01 T02600148  RH  050%=      5-min Rain = 0
KHO1 031434Z 14011KT 26/15 A3013 RMK A01 T02620149  RH  050%=      5-min Rain = 0
KHO1 031435Z 14010KT 26/15 A3013 RMK A01 T02610149  RH  050%=      5-min Rain = 0
KHO1 031436Z 15009KT 26/15 A3013 RMK A01 T02610150  RH  050%=      5-min Rain = 0
KHO1 031437Z 16009KT 26/15 A3014 RMK A01 T02610149  RH  050%=      5-min Rain = 0
KHO1 031438Z 15008KT 26/15 A3013 RMK A01 T02610151  RH  051%=      5-min Rain = 0
KHO1 031439Z 16008KT 26/15 A3013 RMK A01 T02640151  RH  050%=      5-min Rain = 0
KHO1 031440Z 17009KT 26/15 A3013 RMK A01 T02640151  RH  050%=      5-min Rain = 0
KHO1 031441Z 17010KT 26/15 A3013 RMK A01 T02620149  RH  050%=      5-min Rain = 0
KHO1 031442Z 14009KT 26/15 A3014 RMK A01 T02630151  RH  050%=      5-min Rain = 0
KHO1 031443Z 15008KT 27/15 A3014 RMK A01 T02660151  RH  049%=      5-min Rain = 0
KHO1 031444Z 15008KT 26/15 A3014 RMK A01 T02630149  RH  049%=      5-min Rain = 0
KHO1 031445Z 15010KT 26/15 A3014 RMK A01 T02630150  RH  050%=      5-min Rain = 0
KHO1 031446Z 15010KT 27/15 A3014 RMK A01 T02650150  RH  049%=      5-min Rain = 0
KHO1 031447Z 15010KT 27/15 A3014 RMK A01 T02650151  RH  050%=      5-min Rain = 0
KHO1 031448Z 14011KT 27/15 A3014 RMK A01 T02660152  RH  049%=      5-min Rain = 0
KHO1 031449Z 15011KT 27/15 A3014 RMK A01 T02670151  RH  049%=      5-min Rain = 0
KHO1 031450Z 15012KT 27/15 A3014 RMK A01 T02660151  RH  049%=      5-min Rain = 0
KHO1 031451Z 15012KT 26/15 A3014 RMK A01 T02640151  RH  050%=      5-min Rain = 0
KHO1 031452Z 15011KT 27/15 A3014 RMK A01 T02650151  RH  049%=      5-min Rain = 0
KHO1 031453Z 15009KT 27/15 A3014 RMK A01 T02660152  RH  050%=      5-min Rain = 0
KHO1 031454Z 14011KT 27/15 A3014 RMK A01 T02690154  RH  049%=      5-min Rain = 0
KHO1 031455Z 14011KT 27/15 A3014 RMK A01 T02700153  RH  049%=      5-min Rain = 0
KHO1 031456Z 14012KT 27/15 A3014 RMK A01 T02670152  RH  049%=      5-min Rain = 0
KHO1 031457Z 15010KT 27/15 A3014 RMK A01 T02670154  RH  050%=      5-min Rain = 0
KHO1 031458Z 13011KT 27/15 A3014 RMK A01 T02680154  RH  049%=      5-min Rain = 0
KHO1 031459Z 16012KT 27/15 A3014 RMK A01 T02690153  RH  049%=      5-min Rain = 0
KHO1 031500Z 16012KT 27/15 A3014 RMK A01 T02670154  RH  050%=      5-min Rain = 0
KHO1 031501Z 15011KT 27/15 A3014 RMK A01 T02670153  RH  050%=      5-min Rain = 0
KHO1 031502Z 15009KT 27/15 A3014 RMK A01 T02670154  RH  050%=      5-min Rain = 0
KHO1 031503Z 16010KT 27/16 A3014 RMK A01 T02670155  RH  050%=      5-min Rain = 0
KHO1 031504Z 16009KT 27/15 A3014 RMK A01 T02660154  RH  050%=      5-min Rain = 0
KHO1 031505Z 16010KT 27/16 A3014 RMK A01 T02670155  RH  050%=      5-min Rain = 0
KHO1 031506Z 15010KT 27/16 A3014 RMK A01 T02700156  RH  050%=      5-min Rain = 0
KHO1 031507Z 16012KT 27/16 A3014 RMK A01 T02720155  RH  049%=      5-min Rain = 0
KHO1 031508Z 16012KT 27/15 A3014 RMK A01 T02700154  RH  049%=      5-min Rain = 0
KHO1 031509Z 15011KT 27/15 A3014 RMK A01 T02680153  RH  049%=      5-min Rain = 0
KHO1 031510Z 15009KT 27/15 A3014 RMK A01 T02660153  RH  050%=      5-min Rain = 0
KHO1 031511Z 14007KT 27/16 A3014 RMK A01 T02670155  RH  050%=      5-min Rain = 0
KHO1 031512Z 16008KT 27/16 A3014 RMK A01 T02700155  RH  049%=      5-min Rain = 0
KHO1 031513Z 17010KT 27/16 A3014 RMK A01 T02710156  RH  049%=      5-min Rain = 0
KHO1 031514Z 16008KT 27/16 A3014 RMK A01 T02720155  RH  049%=      5-min Rain = 0
KHO1 031515Z 16010KT 27/15 A3014 RMK A01 T02720154  RH  048%=      5-min Rain = 0
KHO1 031516Z 17009KT 27/15 A3014 RMK A01 T02700154  RH  049%=      5-min Rain = 0
KHO1 031517Z 17008KT 27/16 A3014 RMK A01 T02720156  RH  049%=      5-min Rain = 0
KHO1 031518Z 17008KT 27/16 A3014 RMK A01 T02730156  RH  049%=      5-min Rain = 0
KHO1 031519Z 16010KT 28/16 A3014 RMK A01 T02750155  RH  048%=      5-min Rain = 0
KHO1 031520Z 16010KT 27/15 A3014 RMK A01 T02740154  RH  048%=      5-min Rain = 0
KHO1 031521Z 15010KT 27/15 A3014 RMK A01 T02730154  RH  048%=      5-min Rain = 0
KHO1 031522Z 16010KT 28/16 A3014 RMK A01 T02770155  RH  048%=      5-min Rain = 0
KHO1 031523Z 16010KT 28/15 A3014 RMK A01 T02760154  RH  047%=      5-min Rain = 0
KHO1 031524Z 14010KT 28/15 A3014 RMK A01 T02750153  RH  047%=      5-min Rain = 0
KHO1 031525Z 15010KT 28/15 A3014 RMK A01 T02750154  RH  047%=      5-min Rain = 0
KHO1 031526Z 16010KT 28/15 A3014 RMK A01 T02750153  RH  047%=      5-min Rain = 0
KHO1 031527Z 16008KT 27/15 A3014 RMK A01 T02740152  RH  047%=      5-min Rain = 0
KHO1 031528Z 16008KT 27/15 A3014 RMK A01 T02740152  RH  047%=      5-min Rain = 0
KHO1 031529Z 15006KT 27/15 A3014 RMK A01 T02740151  RH  047%=      5-min Rain = 0
KHO1 031530Z 14007KT 27/15 A3014 RMK A01 T02730152  RH  048%=      5-min Rain = 0
KHO1 031531Z 15008KT 28/15 A3014 RMK A01 T02750154  RH  047%=      5-min Rain = 0
KHO1 031532Z 16008KT 28/15 A3014 RMK A01 T02770153  RH  047%=      5-min Rain = 0
KHO1 031533Z 15007KT 28/15 A3014 RMK A01 T02780152  RH  046%=      5-min Rain = 0
KHO1 031534Z 15007KT 28/15 A3014 RMK A01 T02760152  RH  047%=      5-min Rain = 0
KHO1 031535Z 15011KT 28/15 A3014 RMK A01 T02760153  RH  047%=      5-min Rain = 0
KHO1 031536Z 13008KT 28/15 A3014 RMK A01 T02760152  RH  047%=      5-min Rain = 0
KHO1 031537Z 15008KT 28/15 A3014 RMK A01 T02760153  RH  047%=      5-min Rain = 0
KHO1 031538Z 13009KT 28/16 A3014 RMK A01 T02820155  RH  046%=      5-min Rain = 0
KHO1 031539Z 15009KT 28/15 A3014 RMK A01 T02810152  RH  045%=      5-min Rain = 0
KHO1 031540Z 14010KT 28/15 A3014 RMK A01 T02810151  RH  045%=      5-min Rain = 0
KHO1 031541Z 15010KT 28/15 A3014 RMK A01 T02810151  RH  045%=      5-min Rain = 0
KHO1 031542Z 14009KT 28/15 A3014 RMK A01 T02790151  RH  046%=      5-min Rain = 0
KHO1 031543Z 15006KT 28/15 A3014 RMK A01 T02790152  RH  046%=      5-min Rain = 0
KHO1 031544Z 15007KT 28/15 A3014 RMK A01 T02800153  RH  046%=      5-min Rain = 0
KHO1 031545Z 14008KT 28/15 A3014 RMK A01 T02810153  RH  046%=      5-min Rain = 0
KHO1 031546Z 13011KT 28/15 A3014 RMK A01 T02820151  RH  045%=      5-min Rain = 0
KHO1 031547Z 13009KT 28/15 A3014 RMK A01 T02810151  RH  045%=      5-min Rain = 0
KHO1 031548Z 14011KT 28/15 A3014 RMK A01 T02820151  RH  045%=      5-min Rain = 0
KHO1 031549Z 15009KT 28/15 A3014 RMK A01 T02820152  RH  045%=      5-min Rain = 0
KHO1 031550Z 15008KT 28/15 A3014 RMK A01 T02820152  RH  045%=      5-min Rain = 0
KHO1 031551Z 15009KT 28/15 A3014 RMK A01 T02830151  RH  045%=      5-min Rain = 0
KHO1 031552Z 14011KT 28/15 A3014 RMK A01 T02820150  RH  045%=      5-min Rain = 0
KHO1 031553Z 14009KT 28/15 A3014 RMK A01 T02830149  RH  044%=      5-min Rain = 0
KHO1 031554Z 16007KT 28/15 A3014 RMK A01 T02830149  RH  044%=      5-min Rain = 0
KHO1 031555Z 17006KT 28/15 A3014 RMK A01 T02840148  RH  043%=      5-min Rain = 0
KHO1 031556Z 17007KT 29/15 A3014 RMK A01 T02860149  RH  043%=      5-min Rain = 0
KHO1 031557Z 16006KT 29/15 A3014 RMK A01 T02890149  RH  043%=      5-min Rain = 0
KHO1 031558Z 17006KT 29/15 A3014 RMK A01 T02900149  RH  042%=      5-min Rain = 0
KHO1 031559Z 14006KT 29/15 A3014 RMK A01 T02900146  RH  041%=      5-min Rain = 0
KHO1 031600Z 14009KT 29/14 A3014 RMK A01 T02890144  RH  041%=      5-min Rain = 0
KHO1 031601Z 14009KT 29/15 A3014 RMK A01 T02870145  RH  042%=      5-min Rain = 0
KHO1 031602Z 15010KT 29/15 A3014 RMK A01 T02880146  RH  042%=      5-min Rain = 0
KHO1 031603Z 14007KT 29/15 A3014 RMK A01 T02880147  RH  042%=      5-min Rain = 0
KHO1 031604Z 13008KT 29/15 A3014 RMK A01 T02910146  RH  041%=      5-min Rain = 0
KHO1 031605Z 12009KT 29/15 A3014 RMK A01 T02920147  RH  041%=      5-min Rain = 0
KHO1 031606Z 10010KT 29/15 A3014 RMK A01 T02930148  RH  041%=      5-min Rain = 0
KHO1 031607Z 11008KT 30/15 A3014 RMK A01 T02950147  RH  041%=      5-min Rain = 0
KHO1 031608Z 12010KT 30/15 A3014 RMK A01 T02950145  RH  040%=      5-min Rain = 0
KHO1 031609Z 11011KT 29/15 A3014 RMK A01 T02940145  RH  040%=      5-min Rain = 0
KHO1 031610Z 11008KT 30/15 A3014 RMK A01 T02960145  RH  040%=      5-min Rain = 0
KHO1 031611Z 11008KT 30/15 A3014 RMK A01 T02980145  RH  039%=      5-min Rain = 0
KHO1 031612Z 10008KT 30/14 A3014 RMK A01 T03000144  RH  039%=      5-min Rain = 0
KHO1 031613Z 13008KT 30/14 A3014 RMK A01 T03000142  RH  038%=      5-min Rain = 0
KHO1 031614Z 14008KT 30/14 A3014 RMK A01 T02950138  RH  038%=      5-min Rain = 0
KHO1 031615Z 14007KT 29/14 A3014 RMK A01 T02920138  RH  039%=      5-min Rain = 0
KHO1 031616Z 12004KT 29/14 A3014 RMK A01 T02920142  RH  040%=      5-min Rain = 0
KHO1 031617Z 14005KT 29/14 A3014 RMK A01 T02920140  RH  040%=      5-min Rain = 0
KHO1 031618Z 15007KT 29/14 A3014 RMK A01 T02920144  RH  040%=      5-min Rain = 0
KHO1 031619Z 14010KT 29/14 A3014 RMK A01 T02910144  RH  041%=      5-min Rain = 0
KHO1 031620Z 16007KT 29/14 A3014 RMK A01 T02900144  RH  041%=      5-min Rain = 0
KHO1 031621Z 17004KT 29/14 A3014 RMK A01 T02880143  RH  041%=      5-min Rain = 0
KHO1 031622Z 14006KT 29/14 A3014 RMK A01 T02880143  RH  041%=      5-min Rain = 0
KHO1 031623Z 16006KT 29/14 A3014 RMK A01 T02870143  RH  041%=      5-min Rain = 0
KHO1 031624Z 16006KT 29/15 A3014 RMK A01 T02880145  RH  042%=      5-min Rain = 0
KHO1 031625Z 15006KT 29/15 A3014 RMK A01 T02910145  RH  041%=      5-min Rain = 0
KHO1 031626Z 16007KT 29/14 A3014 RMK A01 T02930143  RH  040%=      5-min Rain = 0
KHO1 031627Z 14009KT 29/14 A3014 RMK A01 T02930143  RH  040%=      5-min Rain = 0
KHO1 031628Z 12010KT 30/14 A3014 RMK A01 T02970141  RH  038%=      5-min Rain = 0
KHO1 031629Z 14008KT 30/14 A3014 RMK A01 T02980138  RH  038%=      5-min Rain = 0
KHO1 031630Z 14009KT 30/14 A3014 RMK A01 T02950135  RH  038%=      5-min Rain = 0
KHO1 031631Z 14008KT 29/14 A3014 RMK A01 T02930135  RH  038%=      5-min Rain = 0
KHO1 031632Z 11005KT 29/14 A3014 RMK A01 T02930136  RH  038%=      5-min Rain = 0
KHO1 031633Z 10005KT 30/14 A3014 RMK A01 T02960139  RH  038%=      5-min Rain = 0
KHO1 031634Z 11006KT 30/14 A3014 RMK A01 T03000141  RH  038%=      5-min Rain = 0
KHO1 031635Z 11008KT 30/14 A3014 RMK A01 T03020141  RH  037%=      5-min Rain = 0
KHO1 031636Z 11009KT 31/14 A3014 RMK A01 T03050139  RH  036%=      5-min Rain = 0
KHO1 031637Z 11009KT 31/14 A3014 RMK A01 T03060136  RH  036%=      5-min Rain = 0
KHO1 031638Z 11007KT 31/13 A3014 RMK A01 T03060133  RH  035%=      5-min Rain = 0
KHO1 031639Z 14007KT 31/14 A3014 RMK A01 T03060135  RH  035%=      5-min Rain = 0
KHO1 031640Z 14009KT 30/13 A3014 RMK A01 T03040134  RH  035%=      5-min Rain = 0
KHO1 031641Z 15008KT 30/14 A3014 RMK A01 T03040137  RH  036%=      5-min Rain = 0
KHO1 031642Z 15010KT 30/14 A3014 RMK A01 T03040135  RH  036%=      5-min Rain = 0
KHO1 031643Z 16008KT 30/14 A3014 RMK A01 T03010137  RH  037%=      5-min Rain = 0
KHO1 031644Z 14007KT 30/14 A3014 RMK A01 T02970136  RH  037%=      5-min Rain = 0
KHO1 031645Z 14006KT 30/14 A3014 RMK A01 T02960137  RH  038%=      5-min Rain = 0
KHO1 031646Z 13007G12KT 30/14 A3014 RMK A01 T03000139  RH  037%=      5-min Rain = 0
KHO1 031647Z 15010KT 31/14 A3014 RMK A01 T03080137  RH  035%=      5-min Rain = 0
KHO1 031648Z 15010KT 31/13 A3014 RMK A01 T03060133  RH  035%=      5-min Rain = 0
KHO1 031649Z 16009KT 31/13 A3014 RMK A01 T03050133  RH  035%=      5-min Rain = 0
KHO1 031650Z 14008KT 30/14 A3014 RMK A01 T03040135  RH  036%=      5-min Rain = 0
KHO1 031651Z 13010KT 31/14 A3014 RMK A01 T03080137  RH  035%=      5-min Rain = 0
KHO1 031652Z 11008KT 31/13 A3014 RMK A01 T03100133  RH  034%=      5-min Rain = 0
KHO1 031653Z 11011KT 31/13 A3014 RMK A01 T03120128  RH  032%=      5-min Rain = 0
KHO1 031654Z 12009KT 31/13 A3014 RMK A01 T03100125  RH  032%=      5-min Rain = 0
KHO1 031655Z 12008KT 31/12 A3014 RMK A01 T03100124  RH  032%=      5-min Rain = 0
KHO1 031656Z 13004KT 31/12 A3014 RMK A01 T03090124  RH  032%=      5-min Rain = 0
KHO1 031657Z 12007KT 31/13 A3014 RMK A01 T03090125  RH  032%=      5-min Rain = 0
KHO1 031658Z 12006KT 31/12 A3014 RMK A01 T03110124  RH  032%=      5-min Rain = 0
KHO1 031659Z 10004KT 31/13 A3014 RMK A01 T03090126  RH  033%=      5-min Rain = 0
KHO1 031700Z 12005KT 31/13 A3014 RMK A01 T03130126  RH  032%=      5-min Rain = 0
KHO1 031701Z 14006KT 32/13 A3014 RMK A01 T03160125  RH  031%=      5-min Rain = 0
KHO1 031702Z 15006KT 31/12 A3014 RMK A01 T03100118  RH  031%=      5-min Rain = 0
KHO1 031703Z 13005KT 31/12 A3014 RMK A01 T03080123  RH  032%=      5-min Rain = 0
KHO1 031704Z 14006KT 31/13 A3014 RMK A01 T03140127  RH  032%=      5-min Rain = 0
KHO1 031705Z 15008KT 32/13 A3014 RMK A01 T03160127  RH  032%=      5-min Rain = 0
KHO1 031706Z 14010KT 32/13 A3014 RMK A01 T03150126  RH  032%=      5-min Rain = 0
KHO1 031707Z 14007KT 31/13 A3014 RMK A01 T03090126  RH  033%=      5-min Rain = 0
KHO1 031708Z 14008KT 31/13 A3014 RMK A01 T03080129  RH  033%=      5-min Rain = 0
KHO1 031709Z 14008KT 31/13 A3014 RMK A01 T03110129  RH  033%=      5-min Rain = 0
KHO1 031710Z 13009G16KT 31/13 A3014 RMK A01 T03110129  RH  033%=      5-min Rain = 0
KHO1 031711Z 12011KT 32/13 A3014 RMK A01 T03160131  RH  032%=      5-min Rain = 0
KHO1 031712Z 12009KT 32/13 A3014 RMK A01 T03170129  RH  032%=      5-min Rain = 0
KHO1 031713Z 14008KT 32/13 A3014 RMK A01 T03200130  RH  032%=      5-min Rain = 0
KHO1 031714Z 13013KT 32/13 A3014 RMK A01 T03210130  RH  031%=      5-min Rain = 0
KHO1 031715Z 13011KT 32/13 A3014 RMK A01 T03160129  RH  032%=      5-min Rain = 0
KHO1 031716Z 13011KT 32/13 A3014 RMK A01 T03170130  RH  032%=      5-min Rain = 0
KHO1 031717Z 13008KT 31/13 A3014 RMK A01 T03120129  RH  033%=      5-min Rain = 0
KHO1 031718Z 14009KT 31/13 A3014 RMK A01 T03100130  RH  033%=      5-min Rain = 0
KHO1 031719Z 12011KT 32/13 A3014 RMK A01 T03170132  RH  032%=      5-min Rain = 0
KHO1 031720Z 10011KT 32/13 A3014 RMK A01 T03230130  RH  031%=      5-min Rain = 0
KHO1 031721Z 10008KT 32/13 A3014 RMK A01 T03230128  RH  031%=      5-min Rain = 0
KHO1 031722Z 12005KT 32/13 A3014 RMK A01 T03230127  RH  030%=      5-min Rain = 0
KHO1 031723Z 14007KT 32/12 A3014 RMK A01 T03210124  RH  030%=      5-min Rain = 0
KHO1 031724Z 14007KT 32/12 A3014 RMK A01 T03160121  RH  030%=      5-min Rain = 0
KHO1 031725Z 15011KT 32/12 A3014 RMK A01 T03160124  RH  031%=      5-min Rain = 0
KHO1 031726Z 16008KT 31/13 A3014 RMK A01 T03140125  RH  031%=      5-min Rain = 0
KHO1 031727Z 17006KT 31/13 A3014 RMK A01 T03120127  RH  032%=      5-min Rain = 0
KHO1 031728Z 14009KT 31/13 A3014 RMK A01 T03110128  RH  033%=      5-min Rain = 0
KHO1 031729Z 15010KT 31/13 A3014 RMK A01 T03140128  RH  032%=      5-min Rain = 0
KHO1 031730Z 14007KT 31/13 A3014 RMK A01 T03120127  RH  032%=      5-min Rain = 0
KHO1 031731Z 12010KT 31/13 A3014 RMK A01 T03130128  RH  032%=      5-min Rain = 0
KHO1 031732Z 13008KT 32/13 A3014 RMK A01 T03180130  RH  032%=      5-min Rain = 0
KHO1 031733Z 13010KT 32/13 A3014 RMK A01 T03230127  RH  030%=      5-min Rain = 0
KHO1 031734Z 13010KT 32/12 A3014 RMK A01 T03200118  RH  029%=      5-min Rain = 0
KHO1 031735Z 15007KT 32/12 A3014 RMK A01 T03180118  RH  029%=      5-min Rain = 0
KHO1 031736Z 14009KT 32/12 A3014 RMK A01 T03150118  RH  030%=      5-min Rain = 0
KHO1 031737Z 15009KT 32/12 A3014 RMK A01 T03150119  RH  030%=      5-min Rain = 0
KHO1 031738Z 13012KT 32/12 A3014 RMK A01 T03180120  RH  030%=      5-min Rain = 0
KHO1 031739Z 11011KT 32/12 A3014 RMK A01 T03230119  RH  029%=      5-min Rain = 0
KHO1 031740Z 10010KT 33/12 A3014 RMK A01 T03260117  RH  028%=      5-min Rain = 0
KHO1 031741Z 10009KT 33/12 A3014 RMK A01 T03280115  RH  027%=      5-min Rain = 0
KHO1 031742Z 12009KT 33/12 A3014 RMK A01 T03300115  RH  027%=      5-min Rain = 0
KHO1 031743Z 12009KT 32/11 A3014 RMK A01 T03240109  RH  027%=      5-min Rain = 0
KHO1 031744Z 13009KT 32/10 A3014 RMK A01 T03230104  RH  026%=      5-min Rain = 0
KHO1 031745Z 13007KT 32/10 A3014 RMK A01 T03220103  RH  026%=      5-min Rain = 0
KHO1 031746Z 13008KT 32/11 A3014 RMK A01 T03220105  RH  026%=      5-min Rain = 0
KHO1 031747Z 12011KT 32/11 A3014 RMK A01 T03230108  RH  027%=      5-min Rain = 0
KHO1 031748Z 13009KT 33/11 A3014 RMK A01 T03260110  RH  027%=      5-min Rain = 0
KHO1 031749Z 13009KT 32/11 A3014 RMK A01 T03230109  RH  027%=      5-min Rain = 0
KHO1 031750Z 11008KT 32/11 A3014 RMK A01 T03200114  RH  028%=      5-min Rain = 0
KHO1 031751Z 12008KT 33/12 A3014 RMK A01 T03250117  RH  028%=      5-min Rain = 0
KHO1 031752Z 11006KT 33/12 A3014 RMK A01 T03270122  RH  029%=      5-min Rain = 0
KHO1 031753Z 16007KT 33/12 A3014 RMK A01 T03250117  RH  028%=      5-min Rain = 0
KHO1 031754Z 13008KT 33/12 A3014 RMK A01 T03260121  RH  029%=      5-min Rain = 0
KHO1 031755Z 13009KT 33/12 A3014 RMK A01 T03270121  RH  028%=      5-min Rain = 0
KHO1 031756Z 13008KT 33/12 A3013 RMK A01 T03250120  RH  029%=      5-min Rain = 0
KHO1 031757Z 12011KT 33/12 A3013 RMK A01 T03250120  RH  029%=      5-min Rain = 0
KHO1 031758Z 10007KT 33/12 A3013 RMK A01 T03260115  RH  027%=      5-min Rain = 0
KHO1 031759Z 11011KT 33/12 A3013 RMK A01 T03310116  RH  027%=      5-min Rain = 0
KHO1 031800Z 11011KT 33/12 A3013 RMK A01 T03330115  RH  027%=      5-min Rain = 0
KHO1 031801Z 12012KT 33/11 A3013 RMK A01 T03290113  RH  027%=      5-min Rain = 0
KHO1 031802Z 12009KT 33/12 A3013 RMK A01 T03290115  RH  027%=      5-min Rain = 0
KHO1 031803Z 13008KT 33/11 A3013 RMK A01 T03260111  RH  027%=      5-min Rain = 0
KHO1 031804Z 12011KT 33/11 A3013 RMK A01 T03280113  RH  027%=      5-min Rain = 0
KHO1 031805Z 12012KT 33/11 A3013 RMK A01 T03290110  RH  026%=      5-min Rain = 0
KHO1 031806Z 13011KT 33/10 A3013 RMK A01 T03260103  RH  025%=      5-min Rain = 0
KHO1 031807Z 12009KT 33/11 A3013 RMK A01 T03250106  RH  026%=      5-min Rain = 0
KHO1 031808Z 11008KT 33/11 A3013 RMK A01 T03290109  RH  026%=      5-min Rain = 0
KHO1 031809Z 12011KT 33/11 A3013 RMK A01 T03340107  RH  025%=      5-min Rain = 0
KHO1 031810Z 13012KT 34/09 A3013 RMK A01 T03350094  RH  023%=      5-min Rain = 0
KHO1 031811Z 14011KT 33/09 A3013 RMK A01 T03320088  RH  022%=      5-min Rain = 0
KHO1 031812Z 15008KT 33/10 A3013 RMK A01 T03310096  RH  024%=      5-min Rain = 0
KHO1 031813Z 14011KT 33/10 A3013 RMK A01 T03320099  RH  024%=      5-min Rain = 0
KHO1 031814Z 13011KT 33/09 A3013 RMK A01 T03310090  RH  023%=      5-min Rain = 0
KHO1 031815Z 13009KT 33/09 A3013 RMK A01 T03280092  RH  023%=      5-min Rain = 0
KHO1 031816Z 12006KT 33/09 A3013 RMK A01 T03260094  RH  024%=      5-min Rain = 0
KHO1 031817Z 14004KT 33/09 A3013 RMK A01 T03250094  RH  024%=      5-min Rain = 0
KHO1 031818Z 14001KT 32/10 A3013 RMK A01 T03240096  RH  025%=      5-min Rain = 0
KHO1 031819Z 14007G13KT 33/10 A3013 RMK A01 T03250103  RH  025%=      5-min Rain = 0
KHO1 031820Z 15012KT 33/11 A3013 RMK A01 T03290110  RH  026%=      5-min Rain = 0
KHO1 031821Z 14011KT 33/11 A3013 RMK A01 T03310114  RH  027%=      5-min Rain = 0
KHO1 031822Z 12011KT 33/11 A3013 RMK A01 T03290109  RH  026%=      5-min Rain = 0
KHO1 031823Z 13009KT 33/11 A3013 RMK A01 T03290105  RH  025%=      5-min Rain = 0
KHO1 031824Z 12011KT 33/10 A3013 RMK A01 T03300100  RH  024%=      5-min Rain = 0
KHO1 031825Z 10011KT 33/09 A3013 RMK A01 T03330093  RH  023%=      5-min Rain = 0
KHO1 031826Z 10011KT 34/09 A3013 RMK A01 T03380090  RH  022%=      5-min Rain = 0
KHO1 031827Z 11012KT 34/10 A3012 RMK A01 T03380096  RH  023%=      5-min Rain = 0
KHO1 031828Z 11010KT 34/10 A3013 RMK A01 T03380098  RH  023%=      5-min Rain = 0
KHO1 031829Z 10012KT 34/09 A3012 RMK A01 T03400090  RH  022%=      5-min Rain = 0
KHO1 031830Z 11012KT 34/10 A3012 RMK A01 T03430095  RH  022%=      5-min Rain = 0
KHO1 031831Z 09007KT 34/10 A3012 RMK A01 T03430100  RH  023%=      5-min Rain = 0
KHO1 031832Z 08004KT 34/10 A3012 RMK A01 T03440102  RH  023%=      5-min Rain = 0
KHO1 031833Z 10008KT 34/10 A3012 RMK A01 T03440102  RH  023%=      5-min Rain = 0
KHO1 031834Z 12013KT 35/10 A3012 RMK A01 T03460103  RH  023%=      5-min Rain = 0
KHO1 031835Z 12010KT 34/10 A3012 RMK A01 T03380100  RH  023%=      5-min Rain = 0
KHO1 031836Z 11006KT 33/10 A3012 RMK A01 T03340101  RH  024%=      5-min Rain = 0
KHO1 031837Z 10008KT 34/10 A3012 RMK A01 T03360103  RH  024%=      5-min Rain = 0
KHO1 031838Z 12008KT 34/10 A3012 RMK A01 T03370101  RH  024%=      5-min Rain = 0
KHO1 031839Z 13013G18KT 34/10 A3012 RMK A01 T03360102  RH  024%=      5-min Rain = 0
KHO1 031840Z 12014KT 34/10 A3012 RMK A01 T03380102  RH  024%=      5-min Rain = 0
KHO1 031841Z 13012KT 34/10 A3012 RMK A01 T03370102  RH  024%=      5-min Rain = 0
KHO1 031842Z 12008KT 33/10 A3012 RMK A01 T03340102  RH  024%=      5-min Rain = 0
KHO1 031843Z 11008KT 33/10 A3012 RMK A01 T03330102  RH  024%=      5-min Rain = 0
KHO1 031844Z 11007KT 33/10 A3012 RMK A01 T03340103  RH  024%=      5-min Rain = 0
KHO1 031845Z 09009KT 34/10 A3012 RMK A01 T03380103  RH  024%=      5-min Rain = 0
KHO1 031846Z 07006KT 34/10 A3012 RMK A01 T03390103  RH  024%=      5-min Rain = 0
KHO1 031847Z 11010KT 34/11 A3012 RMK A01 T03410105  RH  024%=      5-min Rain = 0
KHO1 031848Z 10009KT 34/10 A3012 RMK A01 T03410104  RH  024%=      5-min Rain = 0
KHO1 031849Z 08007G14KT 34/11 A3012 RMK A01 T03440105  RH  023%=      5-min Rain = 0
KHO1 031850Z 11010KT 35/10 A3012 RMK A01 T03460104  RH  023%=      5-min Rain = 0
KHO1 031851Z 11011KT 34/10 A3012 RMK A01 T03440103  RH  023%=      5-min Rain = 0
KHO1 031852Z 12012KT 35/10 A3012 RMK A01 T03450104  RH  023%=      5-min Rain = 0
KHO1 031853Z 12013G18KT 34/10 A3012 RMK A01 T03420102  RH  023%=      5-min Rain = 0
KHO1 031854Z 11011KT 34/10 A3012 RMK A01 T03380102  RH  024%=      5-min Rain = 0
KHO1 031855Z 14012KT 34/10 A3012 RMK A01 T03400103  RH  023%=      5-min Rain = 0
KHO1 031856Z 14012KT 34/10 A3012 RMK A01 T03420104  RH  023%=      5-min Rain = 0
KHO1 031857Z 14009KT 34/10 A3012 RMK A01 T03350101  RH  024%=      5-min Rain = 0
KHO1 031858Z 11012KT 34/10 A3012 RMK A01 T03380104  RH  024%=      5-min Rain = 0
KHO1 031859Z 13013KT 34/10 A3012 RMK A01 T03410101  RH  023%=      5-min Rain = 0
KHO1 031900Z 11012KT 34/10 A3012 RMK A01 T03390101  RH  023%=      5-min Rain = 0
KHO1 031901Z 10008KT 34/10 A3012 RMK A01 T03390101  RH  023%=      5-min Rain = 0
KHO1 031902Z 09007KT 34/10 A3012 RMK A01 T03410102  RH  023%=      5-min Rain = 0
KHO1 031903Z 07007KT 34/10 A3012 RMK A01 T03420103  RH  023%=      5-min Rain = 0
KHO1 031904Z 07005KT 34/10 A3012 RMK A01 T03430104  RH  023%=      5-min Rain = 0
KHO1 031905Z 15008KT 34/10 A3012 RMK A01 T03440102  RH  023%=      5-min Rain = 0
KHO1 031906Z 14010KT 34/10 A3012 RMK A01 T03430100  RH  023%=      5-min Rain = 0
KHO1 031907Z 13012KT 34/10 A3012 RMK A01 T03390100  RH  023%=      5-min Rain = 0
KHO1 031908Z 13010KT 34/10 A3012 RMK A01 T03420101  RH  023%=      5-min Rain = 0
KHO1 031909Z 13015KT 34/10 A3012 RMK A01 T03410101  RH  023%=      5-min Rain = 0
KHO1 031910Z 12014G19KT 34/10 A3011 RMK A01 T03380100  RH  023%=      5-min Rain = 0
KHO1 031911Z 12010KT 34/10 A3012 RMK A01 T03370102  RH  024%=      5-min Rain = 0
KHO1 031912Z 14010KT 34/10 A3011 RMK A01 T03400102  RH  023%=      5-min Rain = 0
KHO1 031913Z 12011KT 34/10 A3011 RMK A01 T03410102  RH  023%=      5-min Rain = 0
KHO1 031914Z 13009KT 34/10 A3011 RMK A01 T03370100  RH  023%=      5-min Rain = 0
KHO1 031915Z 11010KT 34/10 A3011 RMK A01 T03360102  RH  024%=      5-min Rain = 0
KHO1 031916Z 14007G12KT 34/10 A3011 RMK A01 T03370103  RH  024%=      5-min Rain = 0
KHO1 031917Z 12008KT 33/10 A3011 RMK A01 T03330103  RH  024%=      5-min Rain = 0
KHO1 031918Z 12009KT 33/11 A3011 RMK A01 T03340106  RH  025%=      5-min Rain = 0
KHO1 031919Z 11013KT 34/11 A3011 RMK A01 T03380106  RH  024%=      5-min Rain = 0
KHO1 031920Z 12009KT 34/10 A3011 RMK A01 T03390104  RH  024%=      5-min Rain = 0
KHO1 031921Z 10007KT 34/10 A3011 RMK A01 T03360104  RH  024%=      5-min Rain = 0
KHO1 031922Z 09006KT 34/11 A3011 RMK A01 T03360105  RH  024%=      5-min Rain = 0
KHO1 031923Z 09008G13KT 34/11 A3011 RMK A01 T03360105  RH  024%=      5-min Rain = 0
KHO1 031924Z 09005KT 34/11 A3011 RMK A01 T03380105  RH  024%=      5-min Rain = 0
KHO1 031925Z 10008KT 34/10 A3011 RMK A01 T03400104  RH  024%=      5-min Rain = 0
KHO1 031926Z 10010KT 34/11 A301 RMK A01 T03430106  RH  024%=      5-min Rain = 0
KHO1 031927Z 08005KT 35/11 A301 RMK A01 T03450105  RH  023%=      5-min Rain = 0
KHO1 031928Z 10005KT 34/11 A301 RMK A01 T03440106  RH  023%=      5-min Rain = 0
KHO1 031929Z 08006KT 35/11 A301 RMK A01 T03470107  RH  023%=      5-min Rain = 0
KHO1 031930Z 10010G15KT 35/11 A301 RMK A01 T03500109  RH  023%=      5-min Rain = 0
KHO1 031931Z 10010KT 35/11 A301 RMK A01 T03530108  RH  023%=      5-min Rain = 0
KHO1 031932Z 12012KT 35/11 A301 RMK A01 T03520107  RH  023%=      5-min Rain = 0
KHO1 031933Z 10013KT 35/11 A301 RMK A01 T03520108  RH  023%=      5-min Rain = 0
KHO1 031934Z 10010KT 35/11 A301 RMK A01 T03520107  RH  023%=      5-min Rain = 0
KHO1 031935Z 10010KT 35/11 A301 RMK A01 T03540107  RH  022%=      5-min Rain = 0
KHO1 031936Z 11013KT 36/11 A301 RMK A01 T03560108  RH  022%=      5-min Rain = 0
KHO1 031937Z 11013KT 35/11 A301 RMK A01 T03530107  RH  022%=      5-min Rain = 0
KHO1 031938Z 11009G15KT 35/11 A301 RMK A01 T03540108  RH  023%=      5-min Rain = 0
KHO1 031939Z 12012KT 35/11 A301 RMK A01 T03510106  RH  023%=      5-min Rain = 0
KHO1 031940Z 12010KT 35/11 A301 RMK A01 T03480105  RH  023%=      5-min Rain = 0
KHO1 031941Z 11010KT 35/11 A301 RMK A01 T03460106  RH  023%=      5-min Rain = 0
KHO1 031942Z 10009G15KT 35/11 A301 RMK A01 T03480108  RH  023%=      5-min Rain = 0
KHO1 031943Z 10011G16KT 35/11 A301 RMK A01 T03520111  RH  023%=      5-min Rain = 0
KHO1 031944Z 10008KT 35/11 A301 RMK A01 T03540108  RH  023%=      5-min Rain = 0
KHO1 031945Z 10009KT 35/11 A3009 RMK A01 T03540111  RH  023%=      5-min Rain = 0
KHO1 031946Z 09009KT 36/11 A3009 RMK A01 T03550113  RH  023%=      5-min Rain = 0
KHO1 031947Z 11010KT 36/11 A3009 RMK A01 T03550114  RH  023%=      5-min Rain = 0
KHO1 031948Z 12008KT 35/12 A3009 RMK A01 T03520115  RH  024%=      5-min Rain = 0
KHO1 031949Z 12009KT 35/11 A3009 RMK A01 T03490114  RH  024%=      5-min Rain = 0
KHO1 031950Z 12011KT 35/11 A3009 RMK A01 T03500114  RH  024%=      5-min Rain = 0
KHO1 031951Z 12012KT 35/11 A3009 RMK A01 T03510113  RH  024%=      5-min Rain = 0
KHO1 031952Z 10013KT 35/11 A3009 RMK A01 T03500114  RH  024%=      5-min Rain = 0
KHO1 031953Z 12015KT 35/11 A3009 RMK A01 T03510114  RH  024%=      5-min Rain = 0
KHO1 031954Z 12012KT 35/11 A3009 RMK A01 T03470111  RH  024%=      5-min Rain = 0
KHO1 031955Z 12010KT 35/11 A3009 RMK A01 T03450112  RH  024%=      5-min Rain = 0
KHO1 031956Z 11012G17KT 35/11 A3009 RMK A01 T03450112  RH  024%=      5-min Rain = 0
KHO1 031957Z 13009G14KT 35/11 A3009 RMK A01 T03470112  RH  024%=      5-min Rain = 0
KHO1 031958Z 14011KT 35/11 A3009 RMK A01 T03480111  RH  024%=      5-min Rain = 0
KHO1 031959Z 12007KT 34/11 A3009 RMK A01 T03420109  RH  024%=      5-min Rain = 0
KHO1 032000Z 10009G14KT 34/11 A3008 RMK A01 T03440111  RH  024%=      5-min Rain = 0
KHO1 032001Z 10009G14KT 35/11 A3008 RMK A01 T03490111  RH  024%=      5-min Rain = 0
KHO1 032002Z 12012G17KT 35/11 A3009 RMK A01 T03530112  RH  023%=      5-min Rain = 0
KHO1 032003Z 12012KT 35/11 A3009 RMK A01 T03500111  RH  023%=      5-min Rain = 0
KHO1 032004Z 10009KT 35/11 A3009 RMK A01 T03480112  RH  024%=      5-min Rain = 0
KHO1 032005Z 11012G21KT 35/11 A3009 RMK A01 T03520113  RH  024%=      5-min Rain = 0
KHO1 032006Z 12019KT 35/11 A3008 RMK A01 T03540113  RH  023%=      5-min Rain = 0
KHO1 032007Z 12015KT 35/11 A3009 RMK A01 T03490111  RH  024%=      5-min Rain = 0
KHO1 032008Z 12015KT 35/11 A3009 RMK A01 T03470111  RH  024%=      5-min Rain = 0
KHO1 032009Z 14007KT 34/11 A3009 RMK A01 T03430109  RH  024%=      5-min Rain = 0
KHO1 032010Z 12007KT 34/11 A3009 RMK A01 T03420113  RH  025%=      5-min Rain = 0
KHO1 032011Z 11006KT 35/12 A3008 RMK A01 T03470115  RH  024%=      5-min Rain = 0
KHO1 032012Z 11010KT 35/11 A3008 RMK A01 T03500113  RH  024%=      5-min Rain = 0
KHO1 032013Z 09009KT 35/11 A3008 RMK A01 T03540111  RH  023%=      5-min Rain = 0
KHO1 032014Z 09007KT 36/11 A3008 RMK A01 T03570110  RH  022%=      5-min Rain = 0
KHO1 032015Z 10009G14KT 36/11 A3008 RMK A01 T03590110  RH  022%=      5-min Rain = 0
KHO1 032016Z 11009KT 36/11 A3008 RMK A01 T03600112  RH  022%=      5-min Rain = 0
KHO1 032017Z 12009KT 36/11 A3008 RMK A01 T03590112  RH  022%=      5-min Rain = 0
KHO1 032018Z 15014KT 35/11 A3008 RMK A01 T03530110  RH  023%=      5-min Rain = 0
KHO1 032019Z 17015KT 35/11 A3008 RMK A01 T03470112  RH  024%=      5-min Rain = 0
KHO1 032020Z 17013KT 35/11 A3008 RMK A01 T03450112  RH  024%=      5-min Rain = 0
KHO1 032021Z 16013KT 35/11 A3008 RMK A01 T03460112  RH  024%=      5-min Rain = 0
KHO1 032022Z 17012KT 34/11 A3008 RMK A01 T03430110  RH  024%=      5-min Rain = 0
KHO1 032023Z 15011KT 34/11 A3008 RMK A01 T03420111  RH  025%=      5-min Rain = 0
KHO1 032024Z 13013KT 35/11 A3008 RMK A01 T03490111  RH  024%=      5-min Rain = 0
KHO1 032025Z 13014KT 35/11 A3008 RMK A01 T03480108  RH  023%=      5-min Rain = 0
KHO1 032026Z 14013KT 35/11 A3008 RMK A01 T03460107  RH  023%=      5-min Rain = 0
KHO1 032027Z 14009KT 34/11 A3009 RMK A01 T03430107  RH  024%=      5-min Rain = 0
KHO1 032028Z 16009KT 34/11 A3008 RMK A01 T03410107  RH  024%=      5-min Rain = 0
KHO1 032029Z 14008KT 34/11 A3008 RMK A01 T03420109  RH  024%=      5-min Rain = 0
KHO1 032030Z 13013KT 35/11 A3008 RMK A01 T03450111  RH  024%=      5-min Rain = 0
KHO1 032031Z 12010KT 35/11 A3008 RMK A01 T03480111  RH  024%=      5-min Rain = 0
KHO1 032032Z 10008KT 35/11 A3008 RMK A01 T03510110  RH  023%=      5-min Rain = 0
KHO1 032033Z 10004KT 35/11 A3008 RMK A01 T03530109  RH  023%=      5-min Rain = 0
KHO1 032034Z 11006KT 35/11 A3008 RMK A01 T03530108  RH  023%=      5-min Rain = 0
KHO1 032035Z 11011G17KT 35/11 A3008 RMK A01 T03510107  RH  023%=      5-min Rain = 0
KHO1 032036Z 13011KT 35/11 A3008 RMK A01 T03500108  RH  023%=      5-min Rain = 0
KHO1 032037Z 13011KT 35/11 A3008 RMK A01 T03480106  RH  023%=      5-min Rain = 0
KHO1 032038Z 13009KT 35/11 A3008 RMK A01 T03450107  RH  023%=      5-min Rain = 0
KHO1 032039Z 13009KT 34/11 A3008 RMK A01 T03440108  RH  024%=      5-min Rain = 0
KHO1 032040Z 13011G18KT 35/11 A3008 RMK A01 T03460110  RH  024%=      5-min Rain = 0
KHO1 032041Z 15014KT 35/11 A3008 RMK A01 T03480108  RH  023%=      5-min Rain = 0
KHO1 032042Z 13011KT 34/11 A3008 RMK A01 T03440106  RH  023%=      5-min Rain = 0
KHO1 032043Z 14009KT 34/11 A3008 RMK A01 T03420106  RH  024%=      5-min Rain = 0
KHO1 032044Z 13010KT 35/11 A3009 RMK A01 T03460110  RH  024%=      5-min Rain = 0
KHO1 032045Z 15011G18KT 35/11 A3009 RMK A01 T03480110  RH  024%=      5-min Rain = 0
KHO1 032046Z 13010KT 35/11 A3009 RMK A01 T03510110  RH  023%=      5-min Rain = 0
KHO1 032047Z 12013KT 35/11 A3008 RMK A01 T03540107  RH  022%=      5-min Rain = 0
KHO1 032048Z 11010KT 35/11 A3009 RMK A01 T03510105  RH  022%=      5-min Rain = 0
KHO1 032049Z 13007G12KT 35/11 A3009 RMK A01 T03520106  RH  022%=      5-min Rain = 0
KHO1 032050Z 14009KT 35/11 A3009 RMK A01 T03500105  RH  023%=      5-min Rain = 0
KHO1 032051Z 16009KT 35/11 A3009 RMK A01 T03470105  RH  023%=      5-min Rain = 0
KHO1 032052Z 15010KT 35/11 A3009 RMK A01 T03480106  RH  023%=      5-min Rain = 0
KHO1 032053Z 18010KT 35/10 A3009 RMK A01 T03450103  RH  023%=      5-min Rain = 0
KHO1 032054Z 17009KT 34/10 A3009 RMK A01 T03400103  RH  024%=      5-min Rain = 0
KHO1 032055Z 17006KT 34/10 A3009 RMK A01 T03380104  RH  024%=      5-min Rain = 0
KHO1 032056Z 15006KT 34/11 A3009 RMK A01 T03390106  RH  024%=      5-min Rain = 0
KHO1 032057Z 11009KT 34/11 A3008 RMK A01 T03430109  RH  024%=      5-min Rain = 0
KHO1 032058Z 11008KT 34/11 A3008 RMK A01 T03420107  RH  024%=      5-min Rain = 0
KHO1 032059Z 11007KT 35/11 A3008 RMK A01 T03450108  RH  024%=      5-min Rain = 0
KHO1 032100Z 11007KT 35/11 A3008 RMK A01 T03460107  RH  023%=      5-min Rain = 0
KHO1 032101Z 14008KT 35/11 A3009 RMK A01 T03470108  RH  023%=      5-min Rain = 0
KHO1 032102Z 16007KT 35/11 A3009 RMK A01 T03450109  RH  024%=      5-min Rain = 0
KHO1 032103Z 12007KT 35/10 A3008 RMK A01 T03450104  RH  023%=      5-min Rain = 0
KHO1 032104Z 10007G12KT 34/10 A3008 RMK A01 T03430103  RH  023%=      5-min Rain = 0
KHO1 032105Z 10008KT 35/10 A3008 RMK A01 T03450103  RH  023%=      5-min Rain = 0
KHO1 032106Z 09007KT 35/10 A3008 RMK A01 T03490104  RH  023%=      5-min Rain = 0
KHO1 032107Z 08005KT 35/10 A3008 RMK A01 T03520104  RH  022%=      5-min Rain = 0
KHO1 032108Z 07005KT 35/10 A3008 RMK A01 T03530104  RH  022%=      5-min Rain = 0
KHO1 032109Z 08005KT 36/10 A3008 RMK A01 T03560103  RH  022%=      5-min Rain = 0
KHO1 032110Z 07005KT 36/10 A3008 RMK A01 T03580104  RH  021%=      5-min Rain = 0
KHO1 032111Z 11010KT 36/10 A3008 RMK A01 T03590103  RH  021%=      5-min Rain = 0
KHO1 032112Z 11007KT 36/10 A3008 RMK A01 T03560100  RH  021%=      5-min Rain = 0
KHO1 032113Z 08006KT 36/10 A3008 RMK A01 T03550100  RH  021%=      5-min Rain = 0
KHO1 032114Z 10008KT 36/10 A3008 RMK A01 T03580100  RH  021%=      5-min Rain = 0
KHO1 032115Z 08007KT 36/10 A3008 RMK A01 T03630099  RH  020%=      5-min Rain = 0
KHO1 032116Z 10006KT 37/10 A3008 RMK A01 T03650099  RH  020%=      5-min Rain = 0
KHO1 032117Z 10006KT 37/10 A3008 RMK A01 T03680101  RH  020%=      5-min Rain = 0
KHO1 032118Z 10009KT 37/10 A3008 RMK A01 T03710100  RH  019%=      5-min Rain = 0
KHO1 032119Z 11009KT 37/10 A3008 RMK A01 T03690099  RH  020%=      5-min Rain = 0
KHO1 032120Z 12009KT 37/10 A3008 RMK A01 T03650099  RH  020%=      5-min Rain = 0
KHO1 032121Z 11007G12KT 36/10 A3008 RMK A01 T03630099  RH  020%=      5-min Rain = 0
KHO1 032122Z 11012KT 36/10 A3008 RMK A01 T03630099  RH  020%=      5-min Rain = 0
KHO1 032123Z 12010KT 36/10 A3008 RMK A01 T03600096  RH  020%=      5-min Rain = 0
KHO1 032124Z 11008KT 36/10 A3008 RMK A01 T03550096  RH  021%=      5-min Rain = 0
KHO1 032125Z 09006KT 36/10 A3008 RMK A01 T03570098  RH  021%=      5-min Rain = 0
KHO1 032126Z 05007KT 36/10 A3008 RMK A01 T03590098  RH  020%=      5-min Rain = 0
KHO1 032127Z 08005KT 36/10 A3008 RMK A01 T03560098  RH  021%=      5-min Rain = 0
KHO1 032128Z 11007KT 35/10 A3008 RMK A01 T03540098  RH  021%=      5-min Rain = 0
KHO1 032129Z 09005KT 35/10 A3008 RMK A01 T03540098  RH  021%=      5-min Rain = 0
KHO1 032130Z 05004KT 35/10 A3008 RMK A01 T03540099  RH  021%=      5-min Rain = 0
KHO1 032131Z 05003KT 35/10 A3008 RMK A01 T03520101  RH  022%=      5-min Rain = 0
KHO1 032132Z 08003KT 35/10 A3008 RMK A01 T03520102  RH  022%=      5-min Rain = 0
KHO1 032133Z 07005KT 35/10 A3008 RMK A01 T03540102  RH  022%=      5-min Rain = 0
KHO1 032134Z 10008G14KT 36/10 A3008 RMK A01 T03560101  RH  021%=      5-min Rain = 0
KHO1 032135Z 12010G15KT 35/10 A3008 RMK A01 T03530100  RH  021%=      5-min Rain = 0
KHO1 032136Z 07007KT 35/10 A3008 RMK A01 T03540101  RH  021%=      5-min Rain = 0
KHO1 032137Z 06007G12KT 36/10 A3008 RMK A01 T03550099  RH  021%=      5-min Rain = 0
KHO1 032138Z 08007KT 35/10 A3007 RMK A01 T03540100  RH  021%=      5-min Rain = 0
KHO1 032139Z 09010KT 36/10 A3007 RMK A01 T03550099  RH  021%=      5-min Rain = 0
KHO1 032140Z 09009KT 36/10 A3007 RMK A01 T03560099  RH  021%=      5-min Rain = 0
KHO1 032141Z 08008KT 36/10 A3007 RMK A01 T03580100  RH  021%=      5-min Rain = 0
KHO1 032142Z 08008KT 36/10 A3008 RMK A01 T03610100  RH  020%=      5-min Rain = 0
KHO1 032143Z 07007KT 36/10 A3008 RMK A01 T03640098  RH  020%=      5-min Rain = 0
KHO1 032144Z 10006KT 36/10 A3007 RMK A01 T03630097  RH  020%=      5-min Rain = 0
KHO1 032145Z 09009KT 36/10 A3007 RMK A01 T03610096  RH  020%=      5-min Rain = 0
KHO1 032146Z 10009KT 36/10 A3007 RMK A01 T03600096  RH  020%=      5-min Rain = 0
KHO1 032147Z 12009KT 36/10 A3007 RMK A01 T03580095  RH  020%=      5-min Rain = 0
KHO1 032148Z 12009KT 35/10 A3007 RMK A01 T03540095  RH  021%=      5-min Rain = 0
KHO1 032149Z 11008KT 35/10 A3007 RMK A01 T03500095  RH  021%=      5-min Rain = 0
KHO1 032150Z 12008KT 35/10 A3007 RMK A01 T03490096  RH  021%=      5-min Rain = 0
KHO1 032151Z 08007KT 35/10 A3007 RMK A01 T03510098  RH  021%=      5-min Rain = 0
KHO1 032152Z 06008KT 35/10 A3007 RMK A01 T03520098  RH  021%=      5-min Rain = 0
KHO1 032153Z 07009KT 35/10 A3007 RMK A01 T03500098  RH  021%=      5-min Rain = 0
KHO1 032154Z 08007KT 35/10 A3007 RMK A01 T03490099  RH  022%=      5-min Rain = 0
KHO1 032155Z 10008KT 35/10 A3007 RMK A01 T03490098  RH  022%=      5-min Rain = 0
KHO1 032156Z 09007KT 35/10 A3007 RMK A01 T03490097  RH  021%=      5-min Rain = 0
KHO1 032157Z 06007KT 35/10 A3007 RMK A01 T03510098  RH  021%=      5-min Rain = 0
KHO1 032158Z 06006KT 35/10 A3007 RMK A01 T03500096  RH  021%=      5-min Rain = 0
KHO1 032159Z 08003KT 35/10 A3007 RMK A01 T03480097  RH  022%=      5-min Rain = 0
KHO1 032200Z 05006KT 35/10 A3007 RMK A01 T03480098  RH  022%=      5-min Rain = 0
KHO1 032201Z 05006KT 35/10 A3007 RMK A01 T03480097  RH  022%=      5-min Rain = 0
KHO1 032202Z 05007G12KT 35/10 A3007 RMK A01 T03480097  RH  022%=      5-min Rain = 0
KHO1 032203Z 05006KT 35/10 A3007 RMK A01 T03470096  RH  022%=      5-min Rain = 0
KHO1 032204Z 04007KT 35/10 A3007 RMK A01 T03460097  RH  022%=      5-min Rain = 0
KHO1 032205Z 03009KT 34/10 A3007 RMK A01 T03440096  RH  022%=      5-min Rain = 0
KHO1 032206Z 05008KT 34/10 A3007 RMK A01 T03440097  RH  022%=      5-min Rain = 0
KHO1 032207Z 06007KT 35/10 A3007 RMK A01 T03450095  RH  022%=      5-min Rain = 0
KHO1 032208Z 04008KT 35/10 A3007 RMK A01 T03460095  RH  022%=      5-min Rain = 0
KHO1 032209Z 04007KT 34/09 A3007 RMK A01 T03440094  RH  022%=      5-min Rain = 0
KHO1 032210Z 05005KT 34/09 A3007 RMK A01 T03440094  RH  022%=      5-min Rain = 0
KHO1 032211Z 06006KT 35/10 A3007 RMK A01 T03460095  RH  022%=      5-min Rain = 0
KHO1 032212Z 03005KT 35/09 A3007 RMK A01 T03470094  RH  021%=      5-min Rain = 0
KHO1 032213Z 03005KT 35/09 A3007 RMK A01 T03460094  RH  021%=      5-min Rain = 0
KHO1 032214Z 05005KT 35/09 A3007 RMK A01 T03450094  RH  021%=      5-min Rain = 0
KHO1 032215Z 04006KT 35/10 A3007 RMK A01 T03450095  RH  022%=      5-min Rain = 0
KHO1 032216Z 04007KT 35/10 A3007 RMK A01 T03490095  RH  021%=      5-min Rain = 0
KHO1 032217Z 03005KT 35/10 A3007 RMK A01 T03530095  RH  021%=      5-min Rain = 0
KHO1 032218Z 07005KT 36/10 A3007 RMK A01 T03580095  RH  020%=      5-min Rain = 0
KHO1 032219Z 07004KT 36/09 A3007 RMK A01 T03630093  RH  019%=      5-min Rain = 0
KHO1 032220Z 05005KT 37/09 A3007 RMK A01 T03660092  RH  019%=      5-min Rain = 0
KHO1 032221Z 02004KT 36/09 A3007 RMK A01 T03640090  RH  019%=      5-min Rain = 0
KHO1 032222Z 06002KT 36/09 A3007 RMK A01 T03590092  RH  020%=      5-min Rain = 0
KHO1 032223Z 10006KT 36/09 A3007 RMK A01 T03570090  RH  020%=      5-min Rain = 0
KHO1 032224Z 11008KT 36/09 A3007 RMK A01 T03590089  RH  019%=      5-min Rain = 0
KHO1 032225Z 10006KT 36/09 A3007 RMK A01 T03580087  RH  019%=      5-min Rain = 0
KHO1 032226Z 11007KT 36/09 A3006 RMK A01 T03590087  RH  019%=      5-min Rain = 0
KHO1 032227Z 12005KT 36/09 A3006 RMK A01 T03620087  RH  019%=      5-min Rain = 0
KHO1 032228Z 11006KT 36/09 A3006 RMK A01 T03640087  RH  019%=      5-min Rain = 0
KHO1 032229Z 15005KT 36/09 A3006 RMK A01 T03620087  RH  019%=      5-min Rain = 0
KHO1 032230Z 12004KT 36/09 A3006 RMK A01 T03570088  RH  019%=      5-min Rain = 0
KHO1 032231Z 10004KT 36/09 A3006 RMK A01 T03590090  RH  019%=      5-min Rain = 0
KHO1 032232Z 12003KT 36/09 A3006 RMK A01 T03570088  RH  019%=      5-min Rain = 0
KHO1 032233Z 09002KT 35/09 A3006 RMK A01 T03520087  RH  020%=      5-min Rain = 0
KHO1 032234Z 08006KT 35/09 A3006 RMK A01 T03510092  RH  021%=      5-min Rain = 0
KHO1 032235Z 09005KT 35/10 A3006 RMK A01 T03510095  RH  021%=      5-min Rain = 0
KHO1 032236Z 10007KT 35/10 A3006 RMK A01 T03520096  RH  021%=      5-min Rain = 0
KHO1 032237Z 11007KT 35/10 A3006 RMK A01 T03510095  RH  021%=      5-min Rain = 0
KHO1 032238Z 09005KT 35/10 A3006 RMK A01 T03500095  RH  021%=      5-min Rain = 0
KHO1 032239Z 10010KT 35/10 A3006 RMK A01 T03500095  RH  021%=      5-min Rain = 0
KHO1 032240Z 10010KT 35/10 A3005 RMK A01 T03500095  RH  021%=      5-min Rain = 0
KHO1 032241Z 11012G17KT 35/09 A3005 RMK A01 T03500093  RH  021%=      5-min Rain = 0
KHO1 032242Z 10011KT 35/09 A3006 RMK A01 T03470092  RH  021%=      5-min Rain = 0
KHO1 032243Z 11009KT 35/09 A3006 RMK A01 T03470092  RH  021%=      5-min Rain = 0
KHO1 032244Z 11010KT 35/09 A3005 RMK A01 T03470091  RH  021%=      5-min Rain = 0
KHO1 032245Z 13008KT 35/09 A3006 RMK A01 T03460091  RH  021%=      5-min Rain = 0
KHO1 032246Z 14010KT 34/09 A3005 RMK A01 T03430089  RH  021%=      5-min Rain = 0
KHO1 032247Z 14008KT 34/09 A3005 RMK A01 T03410090  RH  021%=      5-min Rain = 0
KHO1 032248Z 14009KT 34/09 A3005 RMK A01 T03410091  RH  022%=      5-min Rain = 0
KHO1 032249Z 14008KT 34/09 A3005 RMK A01 T03420091  RH  021%=      5-min Rain = 0
KHO1 032250Z 15008KT 34/09 A3005 RMK A01 T03410090  RH  022%=      5-min Rain = 0
KHO1 032251Z 15006KT 34/09 A3005 RMK A01 T03400090  RH  022%=      5-min Rain = 0
KHO1 032252Z 15006KT 34/09 A3005 RMK A01 T03410090  RH  021%=      5-min Rain = 0
KHO1 032253Z 15004KT 34/09 A3005 RMK A01 T03410091  RH  022%=      5-min Rain = 0
KHO1 032254Z 14004KT 34/09 A3005 RMK A01 T03440091  RH  021%=      5-min Rain = 0
KHO1 032255Z 15003KT 34/09 A3005 RMK A01 T03440090  RH  021%=      5-min Rain = 0
KHO1 032256Z 13005KT 34/09 A3005 RMK A01 T03440089  RH  021%=      5-min Rain = 0
KHO1 032257Z 12004KT 34/09 A3005 RMK A01 T03440089  RH  021%=      5-min Rain = 0
KHO1 032258Z 09006KT 35/10 A3005 RMK A01 T03460097  RH  022%=      5-min Rain = 0
KHO1 032259Z 12008KT 35/10 A3005 RMK A01 T03490100  RH  022%=      5-min Rain = 0
KHO1 032300Z 13011KT 35/10 A3005 RMK A01 T03500099  RH  022%=      5-min Rain = 0
KHO1 032301Z 11011KT 35/10 A3005 RMK A01 T03520099  RH  021%=      5-min Rain = 0
KHO1 032302Z 12007KT 35/10 A3005 RMK A01 T03520098  RH  021%=      5-min Rain = 0
KHO1 032303Z 12007KT 35/10 A3005 RMK A01 T03490097  RH  022%=      5-min Rain = 0
KHO1 032304Z 12008KT 35/10 A3005 RMK A01 T03470098  RH  022%=      5-min Rain = 0
KHO1 032305Z 12012KT 35/10 A3005 RMK A01 T03490099  RH  022%=      5-min Rain = 0
KHO1 032306Z 14010KT 35/10 A3005 RMK A01 T03460097  RH  022%=      5-min Rain = 0
KHO1 032307Z 15008KT 35/10 A3005 RMK A01 T03480099  RH  022%=      5-min Rain = 0
KHO1 032308Z 14007KT 35/10 A3005 RMK A01 T03470098  RH  022%=      5-min Rain = 0
KHO1 032309Z 12006KT 35/10 A3005 RMK A01 T03460098  RH  022%=      5-min Rain = 0
KHO1 032310Z 11009G14KT 35/10 A3005 RMK A01 T03490099  RH  022%=      5-min Rain = 0
KHO1 032311Z 11012KT 35/10 A3005 RMK A01 T03520098  RH  021%=      5-min Rain = 0
KHO1 032312Z 10012KT 36/10 A3005 RMK A01 T03550097  RH  021%=      5-min Rain = 0
KHO1 032313Z 11010KT 36/10 A3004 RMK A01 T03560097  RH  021%=      5-min Rain = 0
KHO1 032314Z 11010KT 36/10 A3004 RMK A01 T03570096  RH  021%=      5-min Rain = 0
KHO1 032315Z 11011KT 36/10 A3004 RMK A01 T03560096  RH  021%=      5-min Rain = 0
KHO1 032316Z 12010KT 36/10 A3004 RMK A01 T03560095  RH  020%=      5-min Rain = 0
KHO1 032317Z 09009KT 36/10 A3004 RMK A01 T03560095  RH  020%=      5-min Rain = 0
KHO1 032318Z 10007KT 36/10 A3004 RMK A01 T03580096  RH  020%=      5-min Rain = 0
KHO1 032319Z 09005KT 36/10 A3004 RMK A01 T03580096  RH  020%=      5-min Rain = 0
KHO1 032320Z 09006KT 36/10 A3004 RMK A01 T03610096  RH  020%=      5-min Rain = 0
KHO1 032321Z 10006KT 36/09 A3004 RMK A01 T03620094  RH  020%=      5-min Rain = 0
KHO1 032322Z 10010KT 36/09 A3004 RMK A01 T03630093  RH  019%=      5-min Rain = 0
KHO1 032323Z 10009KT 36/09 A3004 RMK A01 T03590091  RH  019%=      5-min Rain = 0
KHO1 032324Z 10007KT 36/09 A3004 RMK A01 T03560091  RH  020%=      5-min Rain = 0
KHO1 032325Z 09006KT 35/09 A3004 RMK A01 T03540092  RH  020%=      5-min Rain = 0
KHO1 032326Z 09004KT 35/09 A3004 RMK A01 T03520092  RH  020%=      5-min Rain = 0
KHO1 032327Z 12003KT 35/09 A3004 RMK A01 T03520092  RH  020%=      5-min Rain = 0
KHO1 032328Z 12009KT 35/09 A3004 RMK A01 T03500093  RH  021%=      5-min Rain = 0
KHO1 032329Z 12008KT 35/09 A3004 RMK A01 T03480094  RH  021%=      5-min Rain = 0
KHO1 032330Z 12011KT 35/09 A3004 RMK A01 T03460093  RH  021%=      5-min Rain = 0
KHO1 032331Z 13010KT 35/09 A3004 RMK A01 T03450094  RH  022%=      5-min Rain = 0
KHO1 032332Z 12006KT 34/09 A3004 RMK A01 T03440094  RH  022%=      5-min Rain = 0
KHO1 032333Z 13006KT 34/10 A3004 RMK A01 T03430095  RH  022%=      5-min Rain = 0
KHO1 032334Z 13005KT 34/10 A3004 RMK A01 T03420096  RH  022%=      5-min Rain = 0
KHO1 032335Z 12009KT 35/10 A3004 RMK A01 T03470098  RH  022%=      5-min Rain = 0
KHO1 032336Z 10008KT 35/10 A3004 RMK A01 T03480097  RH  021%=      5-min Rain = 0
KHO1 032337Z 11008KT 35/10 A3003 RMK A01 T03490095  RH  021%=      5-min Rain = 0
KHO1 032338Z 12008KT 35/10 A3003 RMK A01 T03480095  RH  021%=      5-min Rain = 0
KHO1 032339Z 11007KT 35/10 A3003 RMK A01 T03480096  RH  021%=      5-min Rain = 0
KHO1 032340Z 10007KT 35/10 A3003 RMK A01 T03510097  RH  021%=      5-min Rain = 0
KHO1 032341Z 12009KT 35/10 A3003 RMK A01 T03530096  RH  021%=      5-min Rain = 0
KHO1 032342Z 15010KT 35/09 A3003 RMK A01 T03500093  RH  021%=      5-min Rain = 0
KHO1 032343Z 15009KT 35/09 A3003 RMK A01 T03470093  RH  021%=      5-min Rain = 0
KHO1 032344Z 15010KT 34/09 A3003 RMK A01 T03440093  RH  021%=      5-min Rain = 0
KHO1 032345Z 14009KT 34/09 A3003 RMK A01 T03430094  RH  022%=      5-min Rain = 0
KHO1 032346Z 14010KT 34/09 A3003 RMK A01 T03430094  RH  022%=      5-min Rain = 0
KHO1 032347Z 14008KT 34/09 A3003 RMK A01 T03420094  RH  022%=      5-min Rain = 0
KHO1 032348Z 13006KT 34/10 A3003 RMK A01 T03430095  RH  022%=      5-min Rain = 0
KHO1 032349Z 14005KT 34/10 A3003 RMK A01 T03430095  RH  022%=      5-min Rain = 0
KHO1 032350Z 11006KT 35/10 A3003 RMK A01 T03450096  RH  022%=      5-min Rain = 0
KHO1 032351Z 10006KT 35/10 A3003 RMK A01 T03450095  RH  022%=      5-min Rain = 0
KHO1 032352Z 11008KT 35/10 A3003 RMK A01 T03450095  RH  022%=      5-min Rain = 0
KHO1 032353Z 14005KT 34/09 A3003 RMK A01 T03430094  RH  022%=      5-min Rain = 0
KHO1 032354Z 12006KT 34/09 A3003 RMK A01 T03420094  RH  022%=      5-min Rain = 0
KHO1 032355Z 11008KT 34/09 A3003 RMK A01 T03410094  RH  022%=      5-min Rain = 0
KHO1 032356Z 10009KT 34/09 A3003 RMK A01 T03410094  RH  022%=      5-min Rain = 0
KHO1 032357Z 10007KT 34/09 A3003 RMK A01 T03410094  RH  022%=      5-min Rain = 0
KHO1 032358Z 11008KT 34/09 A3003 RMK A01 T03410094  RH  022%=      5-min Rain = 0
KHO1 032359Z 13008KT 34/09 A3003 RMK A01 T03410094  RH  022%=      5-min Rain = 0
KHO1 040000Z 13006KT 34/09 A3003 RMK A01 T03410094  RH  022%=      5-min Rain = 0
KHO1 040001Z 12007KT 34/09 A3003 RMK A01 T03410094  RH  022%=      5-min Rain = 0
KHO1 040002Z 11009KT 34/09 A3003 RMK A01 T03410094  RH  022%=      5-min Rain = 0
KHO1 040003Z 11011KT 34/09 A3003 RMK A01 T03410093  RH  022%=      5-min Rain = 0
KHO1 040004Z 10009KT 34/09 A3003 RMK A01 T03410093  RH  022%=      5-min Rain = 0
KHO1 040005Z 11009KT 34/09 A3003 RMK A01 T03420093  RH  022%=      5-min Rain = 0
KHO1 040006Z 10007KT 34/09 A3003 RMK A01 T03420093  RH  022%=      5-min Rain = 0
KHO1 040007Z 10011KT 34/09 A3003 RMK A01 T03430092  RH  021%=      5-min Rain = 0
KHO1 040008Z 10008KT 34/09 A3003 RMK A01 T03440091  RH  021%=      5-min Rain = 0
KHO1 040009Z 11012KT 34/09 A3003 RMK A01 T03440090  RH  021%=      5-min Rain = 0
KHO1 040010Z 11009KT 34/09 A3003 RMK A01 T03430090  RH  021%=      5-min Rain = 0
KHO1 040011Z 11007KT 34/09 A3003 RMK A01 T03420090  RH  021%=      5-min Rain = 0
KHO1 040012Z 10006KT 34/09 A3003 RMK A01 T03420090  RH  021%=      5-min Rain = 0
KHO1 040013Z 11005KT 34/09 A3003 RMK A01 T03420090  RH  021%=      5-min Rain = 0
KHO1 040014Z 13006KT 34/09 A3003 RMK A01 T03430091  RH  021%=      5-min Rain = 0
KHO1 040015Z 12008KT 34/09 A3004 RMK A01 T03420090  RH  021%=      5-min Rain = 0
KHO1 040016Z 12007KT 34/09 A3004 RMK A01 T03410090  RH  021%=      5-min Rain = 0
KHO1 040017Z 11007KT 34/09 A3004 RMK A01 T03420091  RH  022%=      5-min Rain = 0
KHO1 040018Z 11010KT 34/09 A3004 RMK A01 T03420091  RH  021%=      5-min Rain = 0
KHO1 040019Z 13009KT 34/09 A3004 RMK A01 T03420090  RH  021%=      5-min Rain = 0
KHO1 040020Z 12009KT 34/09 A3004 RMK A01 T03410090  RH  021%=      5-min Rain = 0
KHO1 040021Z 12010KT 34/09 A3004 RMK A01 T03400090  RH  022%=      5-min Rain = 0
KHO1 040022Z 12010KT 34/09 A3004 RMK A01 T03400090  RH  022%=      5-min Rain = 0
KHO1 040023Z 12009KT 34/09 A3004 RMK A01 T03390090  RH  022%=      5-min Rain = 0
KHO1 040024Z 12009KT 34/09 A3004 RMK A01 T03380090  RH  022%=      5-min Rain = 0
KHO1 040025Z 13009KT 34/09 A3004 RMK A01 T03390090  RH  022%=      5-min Rain = 0
KHO1 040026Z 13008KT 34/09 A3004 RMK A01 T03390089  RH  022%=      5-min Rain = 0
KHO1 040027Z 13009KT 34/09 A3004 RMK A01 T03380088  RH  022%=      5-min Rain = 0
KHO1 040028Z 13009KT 34/09 A3004 RMK A01 T03370088  RH  022%=      5-min Rain = 0
KHO1 040029Z 12008KT 34/09 A3004 RMK A01 T03360088  RH  022%=      5-min Rain = 0
KHO1 040030Z 12009KT 34/09 A3004 RMK A01 T03360089  RH  022%=      5-min Rain = 0
KHO1 040031Z 12008KT 34/09 A3004 RMK A01 T03360089  RH  022%=      5-min Rain = 0
KHO1 040032Z 11006KT 34/09 A3004 RMK A01 T03360089  RH  022%=      5-min Rain = 0
KHO1 040033Z 11006KT 34/09 A3004 RMK A01 T03360089  RH  022%=      5-min Rain = 0
KHO1 040034Z 11006KT 34/09 A3004 RMK A01 T03370089  RH  022%=      5-min Rain = 0
KHO1 040035Z 12006KT 34/09 A3004 RMK A01 T03370087  RH  022%=      5-min Rain = 0
KHO1 040036Z 11006KT 34/09 A3004 RMK A01 T03360087  RH  022%=      5-min Rain = 0
KHO1 040037Z 11009KT 34/09 A3004 RMK A01 T03360087  RH  022%=      5-min Rain = 0
KHO1 040038Z 11007KT 34/09 A3005 RMK A01 T03360086  RH  021%=      5-min Rain = 0
KHO1 040039Z 11008KT 34/09 A3005 RMK A01 T03360086  RH  021%=      5-min Rain = 0
KHO1 040040Z 10009KT 34/09 A3005 RMK A01 T03360085  RH  021%=      5-min Rain = 0
KHO1 040041Z 09005KT 34/09 A3005 RMK A01 T03360086  RH  021%=      5-min Rain = 0
KHO1 040042Z 10009KT 34/09 A3005 RMK A01 T03360085  RH  021%=      5-min Rain = 0
KHO1 040043Z 07006KT 34/09 A3005 RMK A01 T03360085  RH  021%=      5-min Rain = 0
KHO1 040044Z 08006KT 34/09 A3005 RMK A01 T03360085  RH  021%=      5-min Rain = 0
KHO1 040045Z 09007KT 34/09 A3005 RMK A01 T03360086  RH  021%=      5-min Rain = 0
KHO1 040046Z 10009KT 34/09 A3005 RMK A01 T03360086  RH  021%=      5-min Rain = 0
KHO1 040047Z 10007KT 34/09 A3005 RMK A01 T03360086  RH  021%=      5-min Rain = 0
KHO1 040048Z 11007KT 34/09 A3005 RMK A01 T03360086  RH  021%=      5-min Rain = 0
KHO1 040049Z 11008KT 34/09 A3005 RMK A01 T03360086  RH  021%=      5-min Rain = 0
KHO1 040050Z 11008KT 34/09 A3005 RMK A01 T03350086  RH  022%=      5-min Rain = 0
KHO1 040051Z 10008KT 34/09 A3004 RMK A01 T03350086  RH  021%=      5-min Rain = 0
KHO1 040052Z 11007KT 34/09 A3005 RMK A01 T03350085  RH  021%=      5-min Rain = 0
KHO1 040053Z 11008KT 34/09 A3005 RMK A01 T03350085  RH  022%=      5-min Rain = 0
KHO1 040054Z 11010KT 34/09 A3005 RMK A01 T03350085  RH  021%=      5-min Rain = 0
KHO1 040055Z 11010KT 33/08 A3005 RMK A01 T03340084  RH  021%=      5-min Rain = 0
KHO1 040056Z 11009KT 33/08 A3005 RMK A01 T03340084  RH  021%=      5-min Rain = 0
KHO1 040057Z 10008KT 33/08 A3005 RMK A01 T03340084  RH  022%=      5-min Rain = 0
KHO1 040058Z 10008KT 33/08 A3005 RMK A01 T03340084  RH  021%=      5-min Rain = 0
KHO1 040059Z 10008KT 33/08 A3005 RMK A01 T03340084  RH  021%=      5-min Rain = 0
KHO1 040100Z 11006KT 33/09 A3005 RMK A01 T03340085  RH  022%=      5-min Rain = 0
KHO1 040101Z 10006KT 33/09 A3005 RMK A01 T03340085  RH  022%=      5-min Rain = 0
KHO1 040102Z 10008KT 33/09 A3005 RMK A01 T03340085  RH  022%=      5-min Rain = 0
KHO1 040103Z 11008KT 33/09 A3005 RMK A01 T03340085  RH  022%=      5-min Rain = 0
KHO1 040104Z 11009KT 33/09 A3005 RMK A01 T03340085  RH  022%=      5-min Rain = 0
KHO1 040105Z 11008KT 33/09 A3005 RMK A01 T03330085  RH  022%=      5-min Rain = 0
KHO1 040106Z 10008KT 33/09 A3005 RMK A01 T03330085  RH  022%=      5-min Rain = 0
KHO1 040107Z 10007KT 33/09 A3005 RMK A01 T03340086  RH  022%=      5-min Rain = 0
KHO1 040108Z 10008KT 33/09 A3005 RMK A01 T03340085  RH  022%=      5-min Rain = 0
KHO1 040109Z 11005KT 34/09 A3005 RMK A01 T03350085  RH  021%=      5-min Rain = 0
KHO1 040110Z 11007KT 34/09 A3005 RMK A01 T03350086  RH  022%=      5-min Rain = 0
KHO1 040111Z 11008KT 34/09 A3005 RMK A01 T03350085  RH  021%=      5-min Rain = 0
KHO1 040112Z 11006KT 34/09 A3005 RMK A01 T03350085  RH  021%=      5-min Rain = 0
KHO1 040113Z 11007KT 34/09 A3005 RMK A01 T03360085  RH  021%=      5-min Rain = 0
KHO1 040114Z 10006KT 34/09 A3005 RMK A01 T03360085  RH  021%=      5-min Rain = 0
KHO1 040115Z 10006KT 34/09 A3005 RMK A01 T03360085  RH  021%=      5-min Rain = 0
KHO1 040116Z 11007KT 34/09 A3005 RMK A01 T03370085  RH  021%=      5-min Rain = 0
KHO1 040117Z 10007KT 34/09 A3005 RMK A01 T03370085  RH  021%=      5-min Rain = 0
KHO1 040118Z 11010KT 34/09 A3005 RMK A01 T03360085  RH  021%=      5-min Rain = 0
KHO1 040119Z 11009KT 34/09 A3005 RMK A01 T03350085  RH  021%=      5-min Rain = 0
KHO1 040120Z 11010KT 34/09 A3005 RMK A01 T03350085  RH  021%=      5-min Rain = 0
KHO1 040121Z 12010KT 33/09 A3005 RMK A01 T03340085  RH  021%=      5-min Rain = 0
KHO1 040122Z 12010KT 33/09 A3005 RMK A01 T03340085  RH  021%=      5-min Rain = 0
KHO1 040123Z 11009KT 33/09 A3005 RMK A01 T03340085  RH  022%=      5-min Rain = 0
KHO1 040124Z 12009KT 33/09 A3005 RMK A01 T03340085  RH  022%=      5-min Rain = 0
KHO1 040125Z 11009KT 33/09 A3005 RMK A01 T03340085  RH  022%=      5-min Rain = 0
KHO1 040126Z 12010KT 33/09 A3005 RMK A01 T03340085  RH  022%=      5-min Rain = 0
KHO1 040127Z 12008KT 33/09 A3005 RMK A01 T03330086  RH  022%=      5-min Rain = 0
KHO1 040128Z 12007KT 33/09 A3005 RMK A01 T03340086  RH  022%=      5-min Rain = 0
KHO1 040129Z 12006KT 33/09 A3005 RMK A01 T03340087  RH  022%=      5-min Rain = 0
KHO1 040130Z 11006KT 33/09 A3005 RMK A01 T03340087  RH  022%=      5-min Rain = 0
KHO1 040131Z 12008KT 33/09 A3005 RMK A01 T03330086  RH  022%=      5-min Rain = 0
KHO1 040132Z 12009KT 33/09 A3005 RMK A01 T03330086  RH  022%=      5-min Rain = 0
KHO1 040133Z 12011KT 33/09 A3005 RMK A01 T03320086  RH  022%=      5-min Rain = 0
KHO1 040134Z 12009KT 33/09 A3005 RMK A01 T03320087  RH  022%=      5-min Rain = 0
KHO1 040135Z 12009KT 33/09 A3005 RMK A01 T03310088  RH  022%=      5-min Rain = 0
KHO1 040136Z 12009KT 33/09 A3005 RMK A01 T03310088  RH  022%=      5-min Rain = 0
KHO1 040137Z 11009KT 33/09 A3005 RMK A01 T03310088  RH  022%=      5-min Rain = 0
KHO1 040138Z 11010KT 33/09 A3005 RMK A01 T03310087  RH  022%=      5-min Rain = 0
KHO1 040139Z 11008KT 33/09 A3005 RMK A01 T03300087  RH  022%=      5-min Rain = 0
KHO1 040140Z 11010KT 33/09 A3005 RMK A01 T03300087  RH  022%=      5-min Rain = 0
KHO1 040141Z 11009KT 33/09 A3005 RMK A01 T03300087  RH  022%=      5-min Rain = 0
KHO1 040142Z 11009KT 33/09 A3005 RMK A01 T03290087  RH  022%=      5-min Rain = 0
KHO1 040143Z 12008KT 33/09 A3005 RMK A01 T03290088  RH  023%=      5-min Rain = 0
KHO1 040144Z 12009KT 33/09 A3005 RMK A01 T03290088  RH  023%=      5-min Rain = 0
KHO1 040145Z 12009KT 33/09 A3005 RMK A01 T03280088  RH  023%=      5-min Rain = 0
KHO1 040146Z 12010KT 33/09 A3005 RMK A01 T03280089  RH  023%=      5-min Rain = 0
KHO1 040147Z 11011KT 33/09 A3005 RMK A01 T03280089  RH  023%=      5-min Rain = 0
KHO1 040148Z 11010KT 33/09 A3005 RMK A01 T03280087  RH  023%=      5-min Rain = 0
KHO1 040149Z 11012KT 33/09 A3005 RMK A01 T03280087  RH  023%=      5-min Rain = 0
KHO1 040150Z 12011KT 33/09 A3005 RMK A01 T03280087  RH  023%=      5-min Rain = 0
KHO1 040151Z 11009KT 33/09 A3005 RMK A01 T03270087  RH  023%=      5-min Rain = 0
KHO1 040152Z 12010KT 33/09 A3005 RMK A01 T03270087  RH  023%=      5-min Rain = 0
KHO1 040153Z 11009KT 33/09 A3005 RMK A01 T03270087  RH  023%=      5-min Rain = 0
KHO1 040154Z 12012KT 33/09 A3005 RMK A01 T03270087  RH  023%=      5-min Rain = 0
KHO1 040155Z 12010KT 33/09 A3005 RMK A01 T03270087  RH  023%=      5-min Rain = 0
KHO1 040156Z 12010KT 33/09 A3005 RMK A01 T03260087  RH  023%=      5-min Rain = 0
KHO1 040157Z 12009KT 33/09 A3005 RMK A01 T03260088  RH  023%=      5-min Rain = 0
KHO1 040158Z 12008KT 33/09 A3005 RMK A01 T03260088  RH  023%=      5-min Rain = 0
KHO1 040159Z 11009KT 33/09 A3006 RMK A01 T03260088  RH  023%=      5-min Rain = 0
KHO1 040200Z 12010KT 33/09 A3006 RMK A01 T03250088  RH  023%=      5-min Rain = 0
KHO1 040201Z 12008KT 33/09 A3006 RMK A01 T03250088  RH  023%=      5-min Rain = 0
KHO1 040202Z 12009KT 33/09 A3006 RMK A01 T03250088  RH  023%=      5-min Rain = 0
KHO1 040203Z 12009KT 33/09 A3006 RMK A01 T03250088  RH  023%=      5-min Rain = 0
KHO1 040204Z 12010KT 33/09 A3006 RMK A01 T03250088  RH  023%=      5-min Rain = 0
KHO1 040205Z 12008KT 33/09 A3006 RMK A01 T03250088  RH  023%=      5-min Rain = 0
KHO1 040206Z 12011KT 32/09 A3006 RMK A01 T03240088  RH  023%=      5-min Rain = 0
KHO1 040207Z 11010KT 32/09 A3006 RMK A01 T03240088  RH  023%=      5-min Rain = 0
KHO1 040208Z 12008KT 32/09 A3006 RMK A01 T03240088  RH  023%=      5-min Rain = 0
KHO1 040209Z 12011KT 32/09 A3006 RMK A01 T03240088  RH  023%=      5-min Rain = 0
KHO1 040210Z 12011KT 32/09 A3006 RMK A01 T03240088  RH  023%=      5-min Rain = 0
KHO1 040211Z 12011KT 32/09 A3006 RMK A01 T03240088  RH  023%=      5-min Rain = 0
KHO1 040212Z 11010KT 32/09 A3006 RMK A01 T03240089  RH  023%=      5-min Rain = 0
KHO1 040213Z 12011KT 32/09 A3006 RMK A01 T03230089  RH  024%=      5-min Rain = 0
KHO1 040214Z 12010KT 32/09 A3006 RMK A01 T03230089  RH  024%=      5-min Rain = 0
KHO1 040215Z 12012KT 32/09 A3006 RMK A01 T03230089  RH  024%=      5-min Rain = 0
KHO1 040216Z 12009KT 32/09 A3006 RMK A01 T03230089  RH  024%=      5-min Rain = 0
KHO1 040217Z 12010KT 32/09 A3006 RMK A01 T03230089  RH  024%=      5-min Rain = 0
KHO1 040218Z 12009KT 32/09 A3006 RMK A01 T03220089  RH  024%=      5-min Rain = 0
KHO1 040219Z 11009KT 32/09 A3006 RMK A01 T03220089  RH  024%=      5-min Rain = 0
KHO1 040220Z 11008KT 32/09 A3006 RMK A01 T03220089  RH  024%=      5-min Rain = 0
KHO1 040221Z 12008KT 32/09 A3006 RMK A01 T03220089  RH  024%=      5-min Rain = 0
KHO1 040222Z 11008KT 32/09 A3006 RMK A01 T03210090  RH  024%=      5-min Rain = 0
KHO1 040223Z 12007KT 32/09 A3006 RMK A01 T03210090  RH  024%=      5-min Rain = 0
KHO1 040224Z 12008KT 32/09 A3006 RMK A01 T03200090  RH  024%=      5-min Rain = 0
KHO1 040225Z 12009KT 32/09 A3007 RMK A01 T03200090  RH  024%=      5-min Rain = 0
KHO1 040226Z 12011KT 32/09 A3007 RMK A01 T03200090  RH  024%=      5-min Rain = 0
KHO1 040227Z 12008KT 32/09 A3006 RMK A01 T03210090  RH  024%=      5-min Rain = 0
KHO1 040228Z 11008KT 32/09 A3007 RMK A01 T03200090  RH  024%=      5-min Rain = 0
KHO1 040229Z 11008KT 32/09 A3007 RMK A01 T03200090  RH  024%=      5-min Rain = 0
KHO1 040230Z 11011KT 32/09 A3007 RMK A01 T03190090  RH  024%=      5-min Rain = 0
KHO1 040231Z 12010KT 32/09 A3007 RMK A01 T03190090  RH  024%=      5-min Rain = 0
KHO1 040232Z 11010KT 32/09 A3007 RMK A01 T03190090  RH  024%=      5-min Rain = 0
KHO1 040233Z 11009KT 32/09 A3007 RMK A01 T03190090  RH  024%=      5-min Rain = 0
KHO1 040234Z 12010KT 32/09 A3007 RMK A01 T03190090  RH  024%=      5-min Rain = 0
KHO1 040235Z 12010KT 32/09 A3007 RMK A01 T03190090  RH  024%=      5-min Rain = 0
KHO1 040236Z 12009KT 32/09 A3007 RMK A01 T03190090  RH  024%=      5-min Rain = 0
KHO1 040237Z 12008KT 32/09 A3007 RMK A01 T03190090  RH  024%=      5-min Rain = 0
KHO1 040238Z 12009KT 32/09 A3007 RMK A01 T03190090  RH  024%=      5-min Rain = 0
KHO1 040239Z 12008KT 32/09 A3007 RMK A01 T03180090  RH  024%=      5-min Rain = 0
KHO1 040240Z 12010KT 32/09 A3007 RMK A01 T03180090  RH  024%=      5-min Rain = 0
KHO1 040241Z 12010KT 32/09 A3007 RMK A01 T03180090  RH  024%=      5-min Rain = 0
KHO1 040242Z 12008KT 32/09 A3007 RMK A01 T03180090  RH  024%=      5-min Rain = 0
KHO1 040243Z 11010KT 32/09 A3007 RMK A01 T03180090  RH  024%=      5-min Rain = 0
KHO1 040244Z 12009KT 32/09 A3007 RMK A01 T03180090  RH  024%=      5-min Rain = 0
KHO1 040245Z 12009KT 32/09 A3007 RMK A01 T03180090  RH  024%=      5-min Rain = 0
KHO1 040246Z 12008KT 32/09 A3007 RMK A01 T03170091  RH  025%=      5-min Rain = 0
KHO1 040247Z 12007KT 32/09 A3007 RMK A01 T03170091  RH  025%=      5-min Rain = 0
KHO1 040248Z 12009KT 32/09 A3007 RMK A01 T03170091  RH  025%=      5-min Rain = 0
KHO1 040249Z 13007KT 32/09 A3007 RMK A01 T03170091  RH  025%=      5-min Rain = 0
KHO1 040250Z 13006KT 32/09 A3007 RMK A01 T03160091  RH  025%=      5-min Rain = 0
KHO1 040251Z 12010KT 32/09 A3007 RMK A01 T03160091  RH  025%=      5-min Rain = 0
KHO1 040252Z 12009KT 32/09 A3007 RMK A01 T03160091  RH  025%=      5-min Rain = 0
KHO1 040253Z 12008KT 32/09 A3007 RMK A01 T03160091  RH  025%=      5-min Rain = 0
KHO1 040254Z 12007KT 32/09 A3007 RMK A01 T03160091  RH  025%=      5-min Rain = 0
KHO1 040255Z 12008KT 32/09 A3007 RMK A01 T03150091  RH  025%=      5-min Rain = 0
KHO1 040256Z 12009KT 32/09 A3007 RMK A01 T03150091  RH  025%=      5-min Rain = 0
KHO1 040257Z 12009KT 32/09 A3007 RMK A01 T03160091  RH  025%=      5-min Rain = 0
KHO1 040258Z 12008KT 32/09 A3007 RMK A01 T03150091  RH  025%=      5-min Rain = 0
KHO1 040259Z 13009KT 32/09 A3007 RMK A01 T03150091  RH  025%=      5-min Rain = 0
KHO1 040300Z 12008KT 32/09 A3007 RMK A01 T03150092  RH  025%=      5-min Rain = 0
KHO1 040301Z 12010KT 32/09 A3007 RMK A01 T03150091  RH  025%=      5-min Rain = 0
KHO1 040302Z 12009KT 31/09 A3008 RMK A01 T03140091  RH  025%=      5-min Rain = 0
KHO1 040303Z 12008KT 31/09 A3008 RMK A01 T03140092  RH  025%=      5-min Rain = 0
KHO1 040304Z 13007KT 31/09 A3008 RMK A01 T03140092  RH  025%=      5-min Rain = 0
KHO1 040305Z 13007KT 31/09 A3008 RMK A01 T03140092  RH  025%=      5-min Rain = 0
KHO1 040306Z 12007KT 31/09 A3008 RMK A01 T03130092  RH  025%=      5-min Rain = 0
KHO1 040307Z 12007KT 31/09 A3008 RMK A01 T03120092  RH  026%=      5-min Rain = 0
KHO1 040308Z 12007KT 31/09 A3008 RMK A01 T03120092  RH  026%=      5-min Rain = 0
KHO1 040309Z 12008KT 31/09 A3008 RMK A01 T03120092  RH  026%=      5-min Rain = 0
KHO1 040310Z 12008KT 31/09 A3008 RMK A01 T03120092  RH  026%=      5-min Rain = 0
KHO1 040311Z 12007KT 31/09 A3008 RMK A01 T03120092  RH  026%=      5-min Rain = 0
KHO1 040312Z 12008KT 31/09 A3008 RMK A01 T03120092  RH  026%=      5-min Rain = 0
KHO1 040313Z 13007KT 31/09 A3008 RMK A01 T03120093  RH  026%=      5-min Rain = 0
KHO1 040314Z 12007KT 31/09 A3008 RMK A01 T03110092  RH  026%=      5-min Rain = 0
KHO1 040315Z 12008KT 31/09 A3008 RMK A01 T03110093  RH  026%=      5-min Rain = 0
KHO1 040316Z 12009KT 31/09 A3008 RMK A01 T03110093  RH  026%=      5-min Rain = 0
KHO1 040317Z 12010KT 31/09 A3008 RMK A01 T03120093  RH  026%=      5-min Rain = 0
KHO1 040318Z 12009KT 31/09 A3008 RMK A01 T03120093  RH  026%=      5-min Rain = 0
KHO1 040319Z 13009KT 31/09 A3008 RMK A01 T03120093  RH  026%=      5-min Rain = 0
KHO1 040320Z 12009KT 31/09 A3008 RMK A01 T03110093  RH  026%=      5-min Rain = 0
KHO1 040321Z 12010KT 31/09 A3008 RMK A01 T03110093  RH  026%=      5-min Rain = 0
KHO1 040322Z 12010KT 31/09 A3008 RMK A01 T03110093  RH  026%=      5-min Rain = 0
KHO1 040323Z 12009KT 31/09 A3008 RMK A01 T03120093  RH  026%=      5-min Rain = 0
KHO1 040324Z 12009KT 31/09 A3008 RMK A01 T03110093  RH  026%=      5-min Rain = 0
KHO1 040325Z 12009KT 31/09 A3008 RMK A01 T03110093  RH  026%=      5-min Rain = 0
KHO1 040326Z 12009KT 31/09 A3008 RMK A01 T03110093  RH  026%=      5-min Rain = 0
KHO1 040327Z 12008KT 31/09 A3008 RMK A01 T03110093  RH  026%=      5-min Rain = 0
KHO1 040328Z 13008KT 31/09 A3008 RMK A01 T03100093  RH  026%=      5-min Rain = 0
KHO1 040329Z 13011KT 31/09 A3008 RMK A01 T03100093  RH  026%=      5-min Rain = 0
KHO1 040330Z 12009KT 31/09 A3008 RMK A01 T03110093  RH  026%=      5-min Rain = 0
KHO1 040331Z 13011KT 31/09 A3008 RMK A01 T03110093  RH  026%=      5-min Rain = 0
KHO1 040332Z 12010KT 31/09 A3008 RMK A01 T03110093  RH  026%=      5-min Rain = 0
KHO1 040333Z 12009KT 31/09 A3008 RMK A01 T03110093  RH  026%=      5-min Rain = 0
KHO1 040334Z 13010KT 31/09 A3008 RMK A01 T03110093  RH  026%=      5-min Rain = 0
KHO1 040335Z 12008KT 31/09 A3008 RMK A01 T03110093  RH  026%=      5-min Rain = 0
KHO1 040336Z 12009KT 31/09 A3008 RMK A01 T03100093  RH  026%=      5-min Rain = 0
KHO1 040337Z 12010KT 31/09 A3008 RMK A01 T03100094  RH  026%=      5-min Rain = 0
KHO1 040338Z 12012KT 31/09 A3008 RMK A01 T03100093  RH  026%=      5-min Rain = 0
KHO1 040339Z 12012KT 31/09 A3008 RMK A01 T03100093  RH  026%=      5-min Rain = 0
KHO1 040340Z 13010KT 31/09 A3008 RMK A01 T03100093  RH  026%=      5-min Rain = 0
KHO1 040341Z 12011KT 31/09 A3008 RMK A01 T03100093  RH  026%=      5-min Rain = 0
KHO1 040342Z 13011KT 31/09 A3008 RMK A01 T03100093  RH  026%=      5-min Rain = 0
KHO1 040343Z 12011KT 31/09 A3009 RMK A01 T03100093  RH  026%=      5-min Rain = 0
KHO1 040344Z 12009KT 31/09 A3009 RMK A01 T03100093  RH  026%=      5-min Rain = 0
KHO1 040345Z 12012KT 31/09 A3009 RMK A01 T03100093  RH  026%=      5-min Rain = 0
KHO1 040346Z 12010KT 31/09 A3009 RMK A01 T03090093  RH  026%=      5-min Rain = 0
KHO1 040347Z 12011KT 31/09 A3009 RMK A01 T03090093  RH  026%=      5-min Rain = 0
KHO1 040348Z 12012KT 31/09 A3009 RMK A01 T03090093  RH  026%=      5-min Rain = 0
KHO1 040349Z 12012KT 31/09 A3009 RMK A01 T03090093  RH  026%=      5-min Rain = 0
KHO1 040350Z 13009KT 31/09 A3009 RMK A01 T03090093  RH  026%=      5-min Rain = 0
KHO1 040351Z 12010KT 31/09 A3009 RMK A01 T03080093  RH  026%=      5-min Rain = 0
KHO1 040352Z 12010KT 31/09 A3009 RMK A01 T03080094  RH  026%=      5-min Rain = 0
KHO1 040353Z 12010KT 31/09 A3009 RMK A01 T03080094  RH  026%=      5-min Rain = 0
KHO1 040354Z 13010KT 31/09 A3009 RMK A01 T03080094  RH  027%=      5-min Rain = 0
KHO1 040355Z 13012KT 31/09 A3009 RMK A01 T03080093  RH  026%=      5-min Rain = 0
KHO1 040356Z 13010G15KT 31/09 A301 RMK A01 T03080094  RH  027%=      5-min Rain = 0
KHO1 040357Z 12010KT 31/09 A301 RMK A01 T03070094  RH  027%=      5-min Rain = 0
KHO1 040358Z 13010KT 31/09 A301 RMK A01 T03070094  RH  027%=      5-min Rain = 0
KHO1 040359Z 13012KT 31/09 A301 RMK A01 T03070094  RH  027%=      5-min Rain = 0
KHO1 040400Z 13009KT 31/09 A301 RMK A01 T03070094  RH  027%=      5-min Rain = 0
KHO1 040401Z 13009KT 31/09 A301 RMK A01 T03070094  RH  027%=      5-min Rain = 0
KHO1 040402Z 12009KT 31/09 A301 RMK A01 T03060093  RH  027%=      5-min Rain = 0
KHO1 040403Z 13010KT 31/09 A301 RMK A01 T03060094  RH  027%=      5-min Rain = 0
KHO1 040404Z 13012KT 31/09 A301 RMK A01 T03060093  RH  027%=      5-min Rain = 0
KHO1 040405Z 13009KT 31/09 A301 RMK A01 T03060093  RH  027%=      5-min Rain = 0
KHO1 040406Z 12011KT 31/09 A301 RMK A01 T03060093  RH  027%=      5-min Rain = 0
KHO1 040407Z 13011KT 31/09 A301 RMK A01 T03060093  RH  027%=      5-min Rain = 0
KHO1 040408Z 13010KT 31/09 A301 RMK A01 T03050093  RH  027%=      5-min Rain = 0
KHO1 040409Z 13011KT 31/09 A301 RMK A01 T03050093  RH  027%=      5-min Rain = 0
KHO1 040410Z 13010KT 31/09 A301 RMK A01 T03050093  RH  027%=      5-min Rain = 0
KHO1 040411Z 13011KT 31/09 A301 RMK A01 T03050093  RH  027%=      5-min Rain = 0
KHO1 040412Z 13011KT 31/09 A301 RMK A01 T03050093  RH  027%=      5-min Rain = 0
KHO1 040413Z 14012KT 31/09 A301 RMK A01 T03050093  RH  027%=      5-min Rain = 0
KHO1 040414Z 13010KT 31/09 A301 RMK A01 T03050092  RH  027%=      5-min Rain = 0
KHO1 040415Z 13011KT 31/09 A301 RMK A01 T03050093  RH  027%=      5-min Rain = 0
KHO1 040416Z 13012KT 30/09 A301 RMK A01 T03040093  RH  027%=      5-min Rain = 0
KHO1 040417Z 13011KT 30/09 A301 RMK A01 T03040092  RH  027%=      5-min Rain = 0
KHO1 040418Z 13011KT 30/09 A301 RMK A01 T03040092  RH  027%=      5-min Rain = 0
KHO1 040419Z 13011KT 30/09 A301 RMK A01 T03040093  RH  027%=      5-min Rain = 0
KHO1 040420Z 13012KT 30/09 A301 RMK A01 T03040092  RH  027%=      5-min Rain = 0
KHO1 040421Z 14012KT 30/09 A3011 RMK A01 T03040092  RH  027%=      5-min Rain = 0
KHO1 040422Z 13011KT 30/09 A3011 RMK A01 T03040092  RH  027%=      5-min Rain = 0
KHO1 040423Z 14010KT 30/09 A3011 RMK A01 T03040092  RH  027%=      5-min Rain = 0
KHO1 040424Z 13011KT 30/09 A3011 RMK A01 T03030092  RH  027%=      5-min Rain = 0
KHO1 040425Z 13012KT 30/09 A301 RMK A01 T03030092  RH  027%=      5-min Rain = 0
KHO1 040426Z 13013KT 30/09 A301 RMK A01 T03030091  RH  027%=      5-min Rain = 0
KHO1 040427Z 13013KT 30/09 A3011 RMK A01 T03030091  RH  027%=      5-min Rain = 0
KHO1 040428Z 14010KT 30/09 A3011 RMK A01 T03030091  RH  027%=      5-min Rain = 0
KHO1 040429Z 13011KT 30/09 A3011 RMK A01 T03020091  RH  027%=      5-min Rain = 0
KHO1 040430Z 13011KT 30/09 A3011 RMK A01 T03020091  RH  027%=      5-min Rain = 0
KHO1 040431Z 13013KT 30/09 A3011 RMK A01 T03020091  RH  027%=      5-min Rain = 0
KHO1 040432Z 13012KT 30/09 A3011 RMK A01 T03020091  RH  027%=      5-min Rain = 0
KHO1 040433Z 13011KT 30/09 A3011 RMK A01 T03010091  RH  027%=      5-min Rain = 0
KHO1 040434Z 13010KT 30/09 A3011 RMK A01 T03010091  RH  027%=      5-min Rain = 0
KHO1 040435Z 13012KT 30/09 A3011 RMK A01 T03010091  RH  027%=      5-min Rain = 0
KHO1 040436Z 13011KT 30/09 A3011 RMK A01 T03010091  RH  027%=      5-min Rain = 0
KHO1 040437Z 12011KT 30/09 A3011 RMK A01 T03000091  RH  027%=      5-min Rain = 0
KHO1 040438Z 13010KT 30/09 A3011 RMK A01 T03000091  RH  027%=      5-min Rain = 0
KHO1 040439Z 13011KT 30/09 A3011 RMK A01 T03000091  RH  027%=      5-min Rain = 0
KHO1 040440Z 13009KT 30/09 A3011 RMK A01 T02990091  RH  027%=      5-min Rain = 0
KHO1 040441Z 13010KT 30/09 A3011 RMK A01 T02990091  RH  028%=      5-min Rain = 0
KHO1 040442Z 14010KT 30/09 A3011 RMK A01 T02980092  RH  028%=      5-min Rain = 0
KHO1 040443Z 13009G14KT 30/09 A3011 RMK A01 T02980092  RH  028%=      5-min Rain = 0
KHO1 040444Z 12010KT 30/09 A3011 RMK A01 T02970092  RH  028%=      5-min Rain = 0
KHO1 040445Z 13009KT 30/09 A3011 RMK A01 T02980092  RH  028%=      5-min Rain = 0
KHO1 040446Z 13009KT 30/09 A3011 RMK A01 T02970092  RH  028%=      5-min Rain = 0
KHO1 040447Z 13010KT 30/09 A3011 RMK A01 T02960091  RH  028%=      5-min Rain = 0
KHO1 040448Z 13010KT 30/09 A3012 RMK A01 T02960091  RH  028%=      5-min Rain = 0
KHO1 040449Z 13010KT 30/09 A3012 RMK A01 T02960091  RH  028%=      5-min Rain = 0
KHO1 040450Z 13008KT 30/09 A3012 RMK A01 T02950091  RH  028%=      5-min Rain = 0
KHO1 040451Z 13011KT 30/09 A3012 RMK A01 T02950091  RH  028%=      5-min Rain = 0
KHO1 040452Z 13009KT 29/09 A3012 RMK A01 T02940091  RH  028%=      5-min Rain = 0
KHO1 040453Z 13010KT 29/09 A3012 RMK A01 T02930091  RH  028%=      5-min Rain = 0
KHO1 040454Z 13011KT 29/09 A3011 RMK A01 T02930091  RH  028%=      5-min Rain = 0
KHO1 040455Z 13009KT 29/09 A3012 RMK A01 T02920091  RH  028%=      5-min Rain = 0
KHO1 040456Z 13011KT 29/09 A3011 RMK A01 T02920091  RH  029%=      5-min Rain = 0
KHO1 040457Z 14011KT 29/09 A3011 RMK A01 T02920091  RH  029%=      5-min Rain = 0
KHO1 040458Z 14011KT 29/09 A3012 RMK A01 T02920091  RH  029%=      5-min Rain = 0
KHO1 040459Z 14010KT 29/09 A3011 RMK A01 T02920091  RH  029%=      5-min Rain = 0

Page generated in 0.0709 seconds.